<?xml version="1.0" encoding="UTF-8" standalone="no" ?>
<gpx xmlns="http://www.topografix.com/GPX/1/1" xmlns:xsi="http://www.w3.org/2001/XMLSchema-instance" xsi:schemaLocation="http://www.topografix.com/GPX/1/1 http://www.topografix.com/GPX/1/1/gpx.xsd" version="1.1" creator="VisuGPX - https://www.visugpx.com">
  <metadata>
    <name>Granier - Pas de la porte - descente directe</name>
    <desc><![CDATA[Granier par le pas de la porte et descente directe.
Ski 4.2
Expo: 3
Durée:4h30
D : 1200m]]></desc>
  </metadata>
  <trk>
    <name><![CDATA[ACTIVE LOG- 09 FEV 2013 09-03]]></name>
    <trkseg>
      <trkpt lat="45.477" lon="5.93771">
        <ele>842.73</ele>
        <time>2013-02-09T08:03:49Z</time>
      </trkpt>
      <trkpt lat="45.47694" lon="5.93779">
        <ele>843.21</ele>
        <time>2013-02-09T08:03:54Z</time>
      </trkpt>
      <trkpt lat="45.47681" lon="5.93775">
        <ele>846.58</ele>
        <time>2013-02-09T08:04:09Z</time>
      </trkpt>
      <trkpt lat="45.47662" lon="5.93762">
        <ele>849.46</ele>
        <time>2013-02-09T08:04:27Z</time>
      </trkpt>
      <trkpt lat="45.47655" lon="5.93759">
        <ele>851.38</ele>
        <time>2013-02-09T08:04:36Z</time>
      </trkpt>
      <trkpt lat="45.47643" lon="5.93757">
        <ele>853.31</ele>
        <time>2013-02-09T08:04:48Z</time>
      </trkpt>
      <trkpt lat="45.47636" lon="5.93766">
        <ele>855.71</ele>
        <time>2013-02-09T08:05:01Z</time>
      </trkpt>
      <trkpt lat="45.4763" lon="5.9377">
        <ele>858.11</ele>
        <time>2013-02-09T08:05:12Z</time>
      </trkpt>
      <trkpt lat="45.47624" lon="5.93778">
        <ele>858.59</ele>
        <time>2013-02-09T08:05:21Z</time>
      </trkpt>
      <trkpt lat="45.47613" lon="5.93794">
        <ele>860.04</ele>
        <time>2013-02-09T08:05:37Z</time>
      </trkpt>
      <trkpt lat="45.47603" lon="5.93806">
        <ele>861</ele>
        <time>2013-02-09T08:05:47Z</time>
      </trkpt>
      <trkpt lat="45.47591" lon="5.93818">
        <ele>861.96</ele>
        <time>2013-02-09T08:06:03Z</time>
      </trkpt>
      <trkpt lat="45.47586" lon="5.93824">
        <ele>861.96</ele>
        <time>2013-02-09T08:06:09Z</time>
      </trkpt>
      <trkpt lat="45.4758" lon="5.93835">
        <ele>862.44</ele>
        <time>2013-02-09T08:06:18Z</time>
      </trkpt>
      <trkpt lat="45.47568" lon="5.9385">
        <ele>862.92</ele>
        <time>2013-02-09T08:06:31Z</time>
      </trkpt>
      <trkpt lat="45.47556" lon="5.93865">
        <ele>863.88</ele>
        <time>2013-02-09T08:06:43Z</time>
      </trkpt>
      <trkpt lat="45.47546" lon="5.9388">
        <ele>863.88</ele>
        <time>2013-02-09T08:06:56Z</time>
      </trkpt>
      <trkpt lat="45.47544" lon="5.93882">
        <ele>864.36</ele>
        <time>2013-02-09T08:07:00Z</time>
      </trkpt>
      <trkpt lat="45.47534" lon="5.93899">
        <ele>864.84</ele>
        <time>2013-02-09T08:07:13Z</time>
      </trkpt>
      <trkpt lat="45.47522" lon="5.93914">
        <ele>864.84</ele>
        <time>2013-02-09T08:07:26Z</time>
      </trkpt>
      <trkpt lat="45.47512" lon="5.93922">
        <ele>865.8</ele>
        <time>2013-02-09T08:07:36Z</time>
      </trkpt>
      <trkpt lat="45.47497" lon="5.93935">
        <ele>866.77</ele>
        <time>2013-02-09T08:07:51Z</time>
      </trkpt>
      <trkpt lat="45.47487" lon="5.93947">
        <ele>867.25</ele>
        <time>2013-02-09T08:08:02Z</time>
      </trkpt>
      <trkpt lat="45.4748" lon="5.93967">
        <ele>868.21</ele>
        <time>2013-02-09T08:08:16Z</time>
      </trkpt>
      <trkpt lat="45.47477" lon="5.93993">
        <ele>869.17</ele>
        <time>2013-02-09T08:08:33Z</time>
      </trkpt>
      <trkpt lat="45.47478" lon="5.94008">
        <ele>869.65</ele>
        <time>2013-02-09T08:08:42Z</time>
      </trkpt>
      <trkpt lat="45.4748" lon="5.94031">
        <ele>870.13</ele>
        <time>2013-02-09T08:08:56Z</time>
      </trkpt>
      <trkpt lat="45.47478" lon="5.94051">
        <ele>870.61</ele>
        <time>2013-02-09T08:09:07Z</time>
      </trkpt>
      <trkpt lat="45.47469" lon="5.94078">
        <ele>871.57</ele>
        <time>2013-02-09T08:09:25Z</time>
      </trkpt>
      <trkpt lat="45.47463" lon="5.94104">
        <ele>872.05</ele>
        <time>2013-02-09T08:09:41Z</time>
      </trkpt>
      <trkpt lat="45.4746" lon="5.94134">
        <ele>873.01</ele>
        <time>2013-02-09T08:09:59Z</time>
      </trkpt>
      <trkpt lat="45.47463" lon="5.94159">
        <ele>873.98</ele>
        <time>2013-02-09T08:10:15Z</time>
      </trkpt>
      <trkpt lat="45.47463" lon="5.94168">
        <ele>874.46</ele>
        <time>2013-02-09T08:10:25Z</time>
      </trkpt>
      <trkpt lat="45.47462" lon="5.94187">
        <ele>874.94</ele>
        <time>2013-02-09T08:10:37Z</time>
      </trkpt>
      <trkpt lat="45.47457" lon="5.94209">
        <ele>875.42</ele>
        <time>2013-02-09T08:10:49Z</time>
      </trkpt>
      <trkpt lat="45.4745" lon="5.94225">
        <ele>875.9</ele>
        <time>2013-02-09T08:11:01Z</time>
      </trkpt>
      <trkpt lat="45.47438" lon="5.94239">
        <ele>875.42</ele>
        <time>2013-02-09T08:11:13Z</time>
      </trkpt>
      <trkpt lat="45.47435" lon="5.94252">
        <ele>875.42</ele>
        <time>2013-02-09T08:11:23Z</time>
      </trkpt>
      <trkpt lat="45.47432" lon="5.94261">
        <ele>875.9</ele>
        <time>2013-02-09T08:11:29Z</time>
      </trkpt>
      <trkpt lat="45.47427" lon="5.94277">
        <ele>876.86</ele>
        <time>2013-02-09T08:11:40Z</time>
      </trkpt>
      <trkpt lat="45.47424" lon="5.94284">
        <ele>877.34</ele>
        <time>2013-02-09T08:11:46Z</time>
      </trkpt>
      <trkpt lat="45.47421" lon="5.94297">
        <ele>877.82</ele>
        <time>2013-02-09T08:11:56Z</time>
      </trkpt>
      <trkpt lat="45.47421" lon="5.94318">
        <ele>880.22</ele>
        <time>2013-02-09T08:12:13Z</time>
      </trkpt>
      <trkpt lat="45.47417" lon="5.94322">
        <ele>881.19</ele>
        <time>2013-02-09T08:12:24Z</time>
      </trkpt>
      <trkpt lat="45.47412" lon="5.94318">
        <ele>882.63</ele>
        <time>2013-02-09T08:12:34Z</time>
      </trkpt>
      <trkpt lat="45.47412" lon="5.94317">
        <ele>882.63</ele>
        <time>2013-02-09T08:12:35Z</time>
      </trkpt>
      <trkpt lat="45.47409" lon="5.94304">
        <ele>884.55</ele>
        <time>2013-02-09T08:12:52Z</time>
      </trkpt>
      <trkpt lat="45.47401" lon="5.94296">
        <ele>887.91</ele>
        <time>2013-02-09T08:13:07Z</time>
      </trkpt>
      <trkpt lat="45.47401" lon="5.94297">
        <ele>889.36</ele>
        <time>2013-02-09T08:13:17Z</time>
      </trkpt>
      <trkpt lat="45.47401" lon="5.94304">
        <ele>892.24</ele>
        <time>2013-02-09T08:13:31Z</time>
      </trkpt>
      <trkpt lat="45.47393" lon="5.94302">
        <ele>895.12</ele>
        <time>2013-02-09T08:13:45Z</time>
      </trkpt>
      <trkpt lat="45.47391" lon="5.94304">
        <ele>896.09</ele>
        <time>2013-02-09T08:13:50Z</time>
      </trkpt>
      <trkpt lat="45.47395" lon="5.94307">
        <ele>897.05</ele>
        <time>2013-02-09T08:13:55Z</time>
      </trkpt>
      <trkpt lat="45.47399" lon="5.94314">
        <ele>899.93</ele>
        <time>2013-02-09T08:14:06Z</time>
      </trkpt>
      <trkpt lat="45.47392" lon="5.94324">
        <ele>902.82</ele>
        <time>2013-02-09T08:14:20Z</time>
      </trkpt>
      <trkpt lat="45.47385" lon="5.94322">
        <ele>905.22</ele>
        <time>2013-02-09T08:14:32Z</time>
      </trkpt>
      <trkpt lat="45.4738" lon="5.94314">
        <ele>907.62</ele>
        <time>2013-02-09T08:14:46Z</time>
      </trkpt>
      <trkpt lat="45.47374" lon="5.94311">
        <ele>909.06</ele>
        <time>2013-02-09T08:15:11Z</time>
      </trkpt>
      <trkpt lat="45.4737" lon="5.94306">
        <ele>910.99</ele>
        <time>2013-02-09T08:15:22Z</time>
      </trkpt>
      <trkpt lat="45.47368" lon="5.94302">
        <ele>913.87</ele>
        <time>2013-02-09T08:15:35Z</time>
      </trkpt>
      <trkpt lat="45.47366" lon="5.94303">
        <ele>915.79</ele>
        <time>2013-02-09T08:15:43Z</time>
      </trkpt>
      <trkpt lat="45.47361" lon="5.94299">
        <ele>918.68</ele>
        <time>2013-02-09T08:15:57Z</time>
      </trkpt>
      <trkpt lat="45.47362" lon="5.94305">
        <ele>919.64</ele>
        <time>2013-02-09T08:16:05Z</time>
      </trkpt>
      <trkpt lat="45.47361" lon="5.9432">
        <ele>923</ele>
        <time>2013-02-09T08:16:23Z</time>
      </trkpt>
      <trkpt lat="45.47357" lon="5.94331">
        <ele>925.89</ele>
        <time>2013-02-09T08:16:37Z</time>
      </trkpt>
      <trkpt lat="45.47357" lon="5.94349">
        <ele>926.85</ele>
        <time>2013-02-09T08:16:51Z</time>
      </trkpt>
      <trkpt lat="45.4735" lon="5.9436">
        <ele>929.25</ele>
        <time>2013-02-09T08:17:09Z</time>
      </trkpt>
      <trkpt lat="45.47345" lon="5.94372">
        <ele>931.65</ele>
        <time>2013-02-09T08:17:25Z</time>
      </trkpt>
      <trkpt lat="45.47338" lon="5.94381">
        <ele>934.54</ele>
        <time>2013-02-09T08:17:38Z</time>
      </trkpt>
      <trkpt lat="45.47336" lon="5.94386">
        <ele>935.5</ele>
        <time>2013-02-09T08:17:41Z</time>
      </trkpt>
      <trkpt lat="45.47335" lon="5.94393">
        <ele>935.5</ele>
        <time>2013-02-09T08:17:47Z</time>
      </trkpt>
      <trkpt lat="45.47327" lon="5.94408">
        <ele>937.42</ele>
        <time>2013-02-09T08:17:59Z</time>
      </trkpt>
      <trkpt lat="45.47317" lon="5.94421">
        <ele>940.31</ele>
        <time>2013-02-09T08:18:17Z</time>
      </trkpt>
      <trkpt lat="45.47315" lon="5.94421">
        <ele>940.31</ele>
        <time>2013-02-09T08:18:41Z</time>
      </trkpt>
      <trkpt lat="45.47307" lon="5.94426">
        <ele>940.79</ele>
        <time>2013-02-09T08:20:04Z</time>
      </trkpt>
      <trkpt lat="45.4731" lon="5.9444">
        <ele>941.27</ele>
        <time>2013-02-09T08:20:14Z</time>
      </trkpt>
      <trkpt lat="45.47311" lon="5.94442">
        <ele>942.23</ele>
        <time>2013-02-09T08:20:17Z</time>
      </trkpt>
      <trkpt lat="45.4731" lon="5.94452">
        <ele>944.63</ele>
        <time>2013-02-09T08:20:27Z</time>
      </trkpt>
      <trkpt lat="45.47309" lon="5.94466">
        <ele>947.52</ele>
        <time>2013-02-09T08:20:40Z</time>
      </trkpt>
      <trkpt lat="45.47307" lon="5.94476">
        <ele>949.44</ele>
        <time>2013-02-09T08:20:47Z</time>
      </trkpt>
      <trkpt lat="45.47306" lon="5.94482">
        <ele>950.88</ele>
        <time>2013-02-09T08:20:53Z</time>
      </trkpt>
      <trkpt lat="45.47302" lon="5.94499">
        <ele>953.77</ele>
        <time>2013-02-09T08:21:07Z</time>
      </trkpt>
      <trkpt lat="45.473" lon="5.94514">
        <ele>956.65</ele>
        <time>2013-02-09T08:21:18Z</time>
      </trkpt>
      <trkpt lat="45.473" lon="5.94524">
        <ele>958.57</ele>
        <time>2013-02-09T08:21:28Z</time>
      </trkpt>
      <trkpt lat="45.47298" lon="5.94521">
        <ele>959.53</ele>
        <time>2013-02-09T08:21:31Z</time>
      </trkpt>
      <trkpt lat="45.47297" lon="5.94512">
        <ele>960.49</ele>
        <time>2013-02-09T08:21:39Z</time>
      </trkpt>
      <trkpt lat="45.4729" lon="5.94501">
        <ele>963.86</ele>
        <time>2013-02-09T08:21:56Z</time>
      </trkpt>
      <trkpt lat="45.47283" lon="5.94497">
        <ele>966.26</ele>
        <time>2013-02-09T08:22:06Z</time>
      </trkpt>
      <trkpt lat="45.47277" lon="5.94492">
        <ele>969.15</ele>
        <time>2013-02-09T08:22:20Z</time>
      </trkpt>
      <trkpt lat="45.47265" lon="5.94496">
        <ele>972.51</ele>
        <time>2013-02-09T08:22:36Z</time>
      </trkpt>
      <trkpt lat="45.47256" lon="5.94501">
        <ele>975.39</ele>
        <time>2013-02-09T08:22:49Z</time>
      </trkpt>
      <trkpt lat="45.4725" lon="5.94505">
        <ele>977.32</ele>
        <time>2013-02-09T08:22:58Z</time>
      </trkpt>
      <trkpt lat="45.47241" lon="5.94508">
        <ele>980.2</ele>
        <time>2013-02-09T08:23:11Z</time>
      </trkpt>
      <trkpt lat="45.47232" lon="5.94512">
        <ele>982.6</ele>
        <time>2013-02-09T08:23:22Z</time>
      </trkpt>
      <trkpt lat="45.47224" lon="5.94513">
        <ele>985.49</ele>
        <time>2013-02-09T08:23:34Z</time>
      </trkpt>
      <trkpt lat="45.47221" lon="5.94512">
        <ele>985.97</ele>
        <time>2013-02-09T08:23:37Z</time>
      </trkpt>
      <trkpt lat="45.47213" lon="5.94512">
        <ele>988.37</ele>
        <time>2013-02-09T08:23:48Z</time>
      </trkpt>
      <trkpt lat="45.47208" lon="5.94509">
        <ele>990.3</ele>
        <time>2013-02-09T08:23:57Z</time>
      </trkpt>
      <trkpt lat="45.47196" lon="5.94506">
        <ele>992.7</ele>
        <time>2013-02-09T08:24:08Z</time>
      </trkpt>
      <trkpt lat="45.47187" lon="5.94496">
        <ele>994.62</ele>
        <time>2013-02-09T08:24:19Z</time>
      </trkpt>
      <trkpt lat="45.47177" lon="5.94486">
        <ele>997.99</ele>
        <time>2013-02-09T08:24:31Z</time>
      </trkpt>
      <trkpt lat="45.47169" lon="5.9448">
        <ele>1000.87</ele>
        <time>2013-02-09T08:24:46Z</time>
      </trkpt>
      <trkpt lat="45.47166" lon="5.94474">
        <ele>1001.83</ele>
        <time>2013-02-09T08:25:10Z</time>
      </trkpt>
      <trkpt lat="45.47156" lon="5.94474">
        <ele>1003.75</ele>
        <time>2013-02-09T08:25:24Z</time>
      </trkpt>
      <trkpt lat="45.47152" lon="5.94474">
        <ele>1004.72</ele>
        <time>2013-02-09T08:25:30Z</time>
      </trkpt>
      <trkpt lat="45.47143" lon="5.94476">
        <ele>1006.64</ele>
        <time>2013-02-09T08:25:41Z</time>
      </trkpt>
      <trkpt lat="45.4714" lon="5.94477">
        <ele>1008.56</ele>
        <time>2013-02-09T08:25:53Z</time>
      </trkpt>
      <trkpt lat="45.47132" lon="5.94478">
        <ele>1010</ele>
        <time>2013-02-09T08:26:09Z</time>
      </trkpt>
      <trkpt lat="45.47129" lon="5.94478">
        <ele>1010</ele>
        <time>2013-02-09T08:26:12Z</time>
      </trkpt>
      <trkpt lat="45.4712" lon="5.94476">
        <ele>1012.41</ele>
        <time>2013-02-09T08:26:24Z</time>
      </trkpt>
      <trkpt lat="45.47114" lon="5.94477">
        <ele>1013.85</ele>
        <time>2013-02-09T08:26:33Z</time>
      </trkpt>
      <trkpt lat="45.47104" lon="5.94481">
        <ele>1014.81</ele>
        <time>2013-02-09T08:26:45Z</time>
      </trkpt>
      <trkpt lat="45.47093" lon="5.94483">
        <ele>1016.73</ele>
        <time>2013-02-09T08:27:00Z</time>
      </trkpt>
      <trkpt lat="45.47081" lon="5.94481">
        <ele>1017.69</ele>
        <time>2013-02-09T08:27:14Z</time>
      </trkpt>
      <trkpt lat="45.47068" lon="5.94478">
        <ele>1017.69</ele>
        <time>2013-02-09T08:27:24Z</time>
      </trkpt>
      <trkpt lat="45.47054" lon="5.94471">
        <ele>1018.17</ele>
        <time>2013-02-09T08:27:41Z</time>
      </trkpt>
      <trkpt lat="45.4704" lon="5.94458">
        <ele>1020.58</ele>
        <time>2013-02-09T08:28:03Z</time>
      </trkpt>
      <trkpt lat="45.47034" lon="5.94462">
        <ele>1023.94</ele>
        <time>2013-02-09T08:28:19Z</time>
      </trkpt>
      <trkpt lat="45.4703" lon="5.94462">
        <ele>1024.9</ele>
        <time>2013-02-09T08:28:26Z</time>
      </trkpt>
      <trkpt lat="45.4703" lon="5.94448">
        <ele>1027.79</ele>
        <time>2013-02-09T08:28:39Z</time>
      </trkpt>
      <trkpt lat="45.4703" lon="5.94437">
        <ele>1029.71</ele>
        <time>2013-02-09T08:28:51Z</time>
      </trkpt>
      <trkpt lat="45.47024" lon="5.94435">
        <ele>1033.07</ele>
        <time>2013-02-09T08:29:11Z</time>
      </trkpt>
      <trkpt lat="45.47018" lon="5.94438">
        <ele>1035.96</ele>
        <time>2013-02-09T08:29:25Z</time>
      </trkpt>
      <trkpt lat="45.47012" lon="5.94441">
        <ele>1039.32</ele>
        <time>2013-02-09T08:29:39Z</time>
      </trkpt>
      <trkpt lat="45.47011" lon="5.94444">
        <ele>1040.28</ele>
        <time>2013-02-09T08:30:01Z</time>
      </trkpt>
      <trkpt lat="45.47005" lon="5.94445">
        <ele>1041.25</ele>
        <time>2013-02-09T08:30:08Z</time>
      </trkpt>
      <trkpt lat="45.47005" lon="5.94442">
        <ele>1041.25</ele>
        <time>2013-02-09T08:30:10Z</time>
      </trkpt>
      <trkpt lat="45.47005" lon="5.94433">
        <ele>1041.73</ele>
        <time>2013-02-09T08:30:20Z</time>
      </trkpt>
      <trkpt lat="45.47006" lon="5.94422">
        <ele>1043.17</ele>
        <time>2013-02-09T08:30:29Z</time>
      </trkpt>
      <trkpt lat="45.47008" lon="5.94413">
        <ele>1044.13</ele>
        <time>2013-02-09T08:30:38Z</time>
      </trkpt>
      <trkpt lat="45.47011" lon="5.94397">
        <ele>1045.09</ele>
        <time>2013-02-09T08:30:51Z</time>
      </trkpt>
      <trkpt lat="45.47012" lon="5.94384">
        <ele>1046.53</ele>
        <time>2013-02-09T08:31:07Z</time>
      </trkpt>
      <trkpt lat="45.4702" lon="5.94373">
        <ele>1049.9</ele>
        <time>2013-02-09T08:31:21Z</time>
      </trkpt>
      <trkpt lat="45.47028" lon="5.94367">
        <ele>1052.78</ele>
        <time>2013-02-09T08:31:38Z</time>
      </trkpt>
      <trkpt lat="45.47039" lon="5.94368">
        <ele>1056.15</ele>
        <time>2013-02-09T08:31:52Z</time>
      </trkpt>
      <trkpt lat="45.47043" lon="5.94366">
        <ele>1056.63</ele>
        <time>2013-02-09T08:31:59Z</time>
      </trkpt>
      <trkpt lat="45.47057" lon="5.94351">
        <ele>1059.51</ele>
        <time>2013-02-09T08:32:22Z</time>
      </trkpt>
      <trkpt lat="45.47067" lon="5.9434">
        <ele>1062.39</ele>
        <time>2013-02-09T08:32:40Z</time>
      </trkpt>
      <trkpt lat="45.47078" lon="5.94323">
        <ele>1064.8</ele>
        <time>2013-02-09T08:32:58Z</time>
      </trkpt>
      <trkpt lat="45.47088" lon="5.94307">
        <ele>1067.68</ele>
        <time>2013-02-09T08:33:20Z</time>
      </trkpt>
      <trkpt lat="45.471" lon="5.94298">
        <ele>1071.05</ele>
        <time>2013-02-09T08:33:38Z</time>
      </trkpt>
      <trkpt lat="45.47114" lon="5.94285">
        <ele>1073.93</ele>
        <time>2013-02-09T08:33:57Z</time>
      </trkpt>
      <trkpt lat="45.47124" lon="5.94272">
        <ele>1075.85</ele>
        <time>2013-02-09T08:34:13Z</time>
      </trkpt>
      <trkpt lat="45.47127" lon="5.9427">
        <ele>1076.33</ele>
        <time>2013-02-09T08:34:16Z</time>
      </trkpt>
      <trkpt lat="45.47139" lon="5.94256">
        <ele>1079.7</ele>
        <time>2013-02-09T08:34:36Z</time>
      </trkpt>
      <trkpt lat="45.47143" lon="5.94241">
        <ele>1082.58</ele>
        <time>2013-02-09T08:34:56Z</time>
      </trkpt>
      <trkpt lat="45.47143" lon="5.9424">
        <ele>1082.58</ele>
        <time>2013-02-09T08:34:57Z</time>
      </trkpt>
      <trkpt lat="45.47143" lon="5.94236">
        <ele>1083.06</ele>
        <time>2013-02-09T08:35:00Z</time>
      </trkpt>
      <trkpt lat="45.47143" lon="5.94226">
        <ele>1085.95</ele>
        <time>2013-02-09T08:35:11Z</time>
      </trkpt>
      <trkpt lat="45.47145" lon="5.94211">
        <ele>1088.35</ele>
        <time>2013-02-09T08:35:26Z</time>
      </trkpt>
      <trkpt lat="45.47148" lon="5.942">
        <ele>1091.23</ele>
        <time>2013-02-09T08:35:39Z</time>
      </trkpt>
      <trkpt lat="45.47146" lon="5.94193">
        <ele>1094.12</ele>
        <time>2013-02-09T08:35:50Z</time>
      </trkpt>
      <trkpt lat="45.47135" lon="5.94194">
        <ele>1095.56</ele>
        <time>2013-02-09T08:36:07Z</time>
      </trkpt>
      <trkpt lat="45.47129" lon="5.94196">
        <ele>1097.48</ele>
        <time>2013-02-09T08:36:17Z</time>
      </trkpt>
      <trkpt lat="45.47126" lon="5.94194">
        <ele>1097.96</ele>
        <time>2013-02-09T08:36:20Z</time>
      </trkpt>
      <trkpt lat="45.47118" lon="5.94195">
        <ele>1098.92</ele>
        <time>2013-02-09T08:36:33Z</time>
      </trkpt>
      <trkpt lat="45.4711" lon="5.94197">
        <ele>1101.81</ele>
        <time>2013-02-09T08:36:47Z</time>
      </trkpt>
      <trkpt lat="45.47102" lon="5.94198">
        <ele>1105.17</ele>
        <time>2013-02-09T08:37:00Z</time>
      </trkpt>
      <trkpt lat="45.47093" lon="5.94201">
        <ele>1106.61</ele>
        <time>2013-02-09T08:37:12Z</time>
      </trkpt>
      <trkpt lat="45.47088" lon="5.94202">
        <ele>1107.58</ele>
        <time>2013-02-09T08:37:17Z</time>
      </trkpt>
      <trkpt lat="45.47081" lon="5.94196">
        <ele>1110.46</ele>
        <time>2013-02-09T08:37:30Z</time>
      </trkpt>
      <trkpt lat="45.47073" lon="5.94194">
        <ele>1112.86</ele>
        <time>2013-02-09T08:37:43Z</time>
      </trkpt>
      <trkpt lat="45.4706" lon="5.94191">
        <ele>1115.75</ele>
        <time>2013-02-09T08:37:59Z</time>
      </trkpt>
      <trkpt lat="45.47052" lon="5.94193">
        <ele>1118.15</ele>
        <time>2013-02-09T08:38:11Z</time>
      </trkpt>
      <trkpt lat="45.47048" lon="5.9419">
        <ele>1119.59</ele>
        <time>2013-02-09T08:38:28Z</time>
      </trkpt>
      <trkpt lat="45.47043" lon="5.94184">
        <ele>1120.55</ele>
        <time>2013-02-09T08:38:41Z</time>
      </trkpt>
      <trkpt lat="45.47034" lon="5.94183">
        <ele>1122.96</ele>
        <time>2013-02-09T08:38:53Z</time>
      </trkpt>
      <trkpt lat="45.47021" lon="5.94182">
        <ele>1125.84</ele>
        <time>2013-02-09T08:39:08Z</time>
      </trkpt>
      <trkpt lat="45.47013" lon="5.94172">
        <ele>1128.24</ele>
        <time>2013-02-09T08:39:20Z</time>
      </trkpt>
      <trkpt lat="45.47005" lon="5.94164">
        <ele>1131.61</ele>
        <time>2013-02-09T08:39:35Z</time>
      </trkpt>
      <trkpt lat="45.46998" lon="5.94156">
        <ele>1134.49</ele>
        <time>2013-02-09T08:39:47Z</time>
      </trkpt>
      <trkpt lat="45.46995" lon="5.94158">
        <ele>1135.45</ele>
        <time>2013-02-09T08:39:50Z</time>
      </trkpt>
      <trkpt lat="45.46991" lon="5.94159">
        <ele>1136.42</ele>
        <time>2013-02-09T08:39:56Z</time>
      </trkpt>
      <trkpt lat="45.4699" lon="5.94158">
        <ele>1136.9</ele>
        <time>2013-02-09T08:39:58Z</time>
      </trkpt>
      <trkpt lat="45.46996" lon="5.94148">
        <ele>1138.82</ele>
        <time>2013-02-09T08:40:11Z</time>
      </trkpt>
      <trkpt lat="45.47001" lon="5.94138">
        <ele>1141.7</ele>
        <time>2013-02-09T08:40:26Z</time>
      </trkpt>
      <trkpt lat="45.47001" lon="5.94138">
        <ele>1142.66</ele>
        <time>2013-02-09T08:40:36Z</time>
      </trkpt>
      <trkpt lat="45.47008" lon="5.94126">
        <ele>1143.63</ele>
        <time>2013-02-09T08:40:46Z</time>
      </trkpt>
      <trkpt lat="45.47009" lon="5.94124">
        <ele>1143.63</ele>
        <time>2013-02-09T08:40:47Z</time>
      </trkpt>
      <trkpt lat="45.47014" lon="5.94107">
        <ele>1146.03</ele>
        <time>2013-02-09T08:41:01Z</time>
      </trkpt>
      <trkpt lat="45.47018" lon="5.94091">
        <ele>1149.39</ele>
        <time>2013-02-09T08:41:15Z</time>
      </trkpt>
      <trkpt lat="45.47024" lon="5.94089">
        <ele>1150.84</ele>
        <time>2013-02-09T08:41:23Z</time>
      </trkpt>
      <trkpt lat="45.47023" lon="5.94079">
        <ele>1153.72</ele>
        <time>2013-02-09T08:41:39Z</time>
      </trkpt>
      <trkpt lat="45.47019" lon="5.94079">
        <ele>1154.68</ele>
        <time>2013-02-09T08:41:44Z</time>
      </trkpt>
      <trkpt lat="45.4701" lon="5.9408">
        <ele>1156.6</ele>
        <time>2013-02-09T08:41:58Z</time>
      </trkpt>
      <trkpt lat="45.47001" lon="5.9408">
        <ele>1157.56</ele>
        <time>2013-02-09T08:42:07Z</time>
      </trkpt>
      <trkpt lat="45.47" lon="5.94079">
        <ele>1157.56</ele>
        <time>2013-02-09T08:42:09Z</time>
      </trkpt>
      <trkpt lat="45.47005" lon="5.94076">
        <ele>1159.97</ele>
        <time>2013-02-09T08:42:21Z</time>
      </trkpt>
      <trkpt lat="45.47012" lon="5.94064">
        <ele>1163.33</ele>
        <time>2013-02-09T08:42:39Z</time>
      </trkpt>
      <trkpt lat="45.47005" lon="5.94062">
        <ele>1164.29</ele>
        <time>2013-02-09T08:42:50Z</time>
      </trkpt>
      <trkpt lat="45.46996" lon="5.94065">
        <ele>1166.22</ele>
        <time>2013-02-09T08:43:02Z</time>
      </trkpt>
      <trkpt lat="45.46985" lon="5.94066">
        <ele>1167.66</ele>
        <time>2013-02-09T08:43:15Z</time>
      </trkpt>
      <trkpt lat="45.4698" lon="5.9407">
        <ele>1168.14</ele>
        <time>2013-02-09T08:43:21Z</time>
      </trkpt>
      <trkpt lat="45.46967" lon="5.94073">
        <ele>1171.02</ele>
        <time>2013-02-09T08:43:38Z</time>
      </trkpt>
      <trkpt lat="45.46968" lon="5.94069">
        <ele>1172.95</ele>
        <time>2013-02-09T08:43:50Z</time>
      </trkpt>
      <trkpt lat="45.46973" lon="5.94058">
        <ele>1176.31</ele>
        <time>2013-02-09T08:44:06Z</time>
      </trkpt>
      <trkpt lat="45.46963" lon="5.94061">
        <ele>1178.71</ele>
        <time>2013-02-09T08:44:21Z</time>
      </trkpt>
      <trkpt lat="45.46958" lon="5.9406">
        <ele>1179.67</ele>
        <time>2013-02-09T08:44:27Z</time>
      </trkpt>
      <trkpt lat="45.46948" lon="5.94057">
        <ele>1182.56</ele>
        <time>2013-02-09T08:44:40Z</time>
      </trkpt>
      <trkpt lat="45.46935" lon="5.94055">
        <ele>1185.44</ele>
        <time>2013-02-09T08:44:58Z</time>
      </trkpt>
      <trkpt lat="45.46928" lon="5.94055">
        <ele>1186.88</ele>
        <time>2013-02-09T08:45:06Z</time>
      </trkpt>
      <trkpt lat="45.4692" lon="5.94056">
        <ele>1188.81</ele>
        <time>2013-02-09T08:45:21Z</time>
      </trkpt>
      <trkpt lat="45.46916" lon="5.94052">
        <ele>1191.21</ele>
        <time>2013-02-09T08:45:39Z</time>
      </trkpt>
      <trkpt lat="45.46918" lon="5.94043">
        <ele>1194.58</ele>
        <time>2013-02-09T08:45:56Z</time>
      </trkpt>
      <trkpt lat="45.46923" lon="5.94034">
        <ele>1197.46</ele>
        <time>2013-02-09T08:46:10Z</time>
      </trkpt>
      <trkpt lat="45.46913" lon="5.9403">
        <ele>1199.86</ele>
        <time>2013-02-09T08:46:26Z</time>
      </trkpt>
      <trkpt lat="45.46899" lon="5.94031">
        <ele>1202.75</ele>
        <time>2013-02-09T08:46:47Z</time>
      </trkpt>
      <trkpt lat="45.46899" lon="5.94029">
        <ele>1203.71</ele>
        <time>2013-02-09T08:46:51Z</time>
      </trkpt>
      <trkpt lat="45.46902" lon="5.94014">
        <ele>1206.59</ele>
        <time>2013-02-09T08:47:07Z</time>
      </trkpt>
      <trkpt lat="45.46892" lon="5.94015">
        <ele>1209.96</ele>
        <time>2013-02-09T08:47:22Z</time>
      </trkpt>
      <trkpt lat="45.46882" lon="5.94023">
        <ele>1213.32</ele>
        <time>2013-02-09T08:47:39Z</time>
      </trkpt>
      <trkpt lat="45.4688" lon="5.94025">
        <ele>1214.28</ele>
        <time>2013-02-09T08:47:43Z</time>
      </trkpt>
      <trkpt lat="45.4688" lon="5.94029">
        <ele>1214.76</ele>
        <time>2013-02-09T08:47:47Z</time>
      </trkpt>
      <trkpt lat="45.46872" lon="5.94033">
        <ele>1216.69</ele>
        <time>2013-02-09T08:47:56Z</time>
      </trkpt>
      <trkpt lat="45.4687" lon="5.94024">
        <ele>1218.61</ele>
        <time>2013-02-09T08:48:08Z</time>
      </trkpt>
      <trkpt lat="45.46868" lon="5.94021">
        <ele>1219.57</ele>
        <time>2013-02-09T08:48:12Z</time>
      </trkpt>
      <trkpt lat="45.46867" lon="5.94018">
        <ele>1220.05</ele>
        <time>2013-02-09T08:48:15Z</time>
      </trkpt>
      <trkpt lat="45.46865" lon="5.94008">
        <ele>1221.97</ele>
        <time>2013-02-09T08:48:25Z</time>
      </trkpt>
      <trkpt lat="45.46869" lon="5.93996">
        <ele>1222.93</ele>
        <time>2013-02-09T08:48:40Z</time>
      </trkpt>
      <trkpt lat="45.46871" lon="5.93993">
        <ele>1223.9</ele>
        <time>2013-02-09T08:48:52Z</time>
      </trkpt>
      <trkpt lat="45.46863" lon="5.93994">
        <ele>1225.34</ele>
        <time>2013-02-09T08:49:01Z</time>
      </trkpt>
      <trkpt lat="45.46852" lon="5.93994">
        <ele>1228.7</ele>
        <time>2013-02-09T08:49:17Z</time>
      </trkpt>
      <trkpt lat="45.46856" lon="5.93979">
        <ele>1231.59</ele>
        <time>2013-02-09T08:49:33Z</time>
      </trkpt>
      <trkpt lat="45.4686" lon="5.9397">
        <ele>1233.51</ele>
        <time>2013-02-09T08:49:50Z</time>
      </trkpt>
      <trkpt lat="45.46866" lon="5.93957">
        <ele>1235.43</ele>
        <time>2013-02-09T08:50:08Z</time>
      </trkpt>
      <trkpt lat="45.46859" lon="5.93954">
        <ele>1238.8</ele>
        <time>2013-02-09T08:50:20Z</time>
      </trkpt>
      <trkpt lat="45.46846" lon="5.93963">
        <ele>1241.68</ele>
        <time>2013-02-09T08:50:37Z</time>
      </trkpt>
      <trkpt lat="45.46845" lon="5.93964">
        <ele>1241.68</ele>
        <time>2013-02-09T08:50:38Z</time>
      </trkpt>
      <trkpt lat="45.46832" lon="5.93963">
        <ele>1244.08</ele>
        <time>2013-02-09T08:50:53Z</time>
      </trkpt>
      <trkpt lat="45.46825" lon="5.93971">
        <ele>1245.53</ele>
        <time>2013-02-09T08:51:01Z</time>
      </trkpt>
      <trkpt lat="45.46818" lon="5.93985">
        <ele>1246.49</ele>
        <time>2013-02-09T08:51:08Z</time>
      </trkpt>
      <trkpt lat="45.46811" lon="5.93998">
        <ele>1247.45</ele>
        <time>2013-02-09T08:51:21Z</time>
      </trkpt>
      <trkpt lat="45.46805" lon="5.94004">
        <ele>1247.93</ele>
        <time>2013-02-09T08:51:28Z</time>
      </trkpt>
      <trkpt lat="45.46795" lon="5.94009">
        <ele>1247.93</ele>
        <time>2013-02-09T08:51:37Z</time>
      </trkpt>
      <trkpt lat="45.46791" lon="5.94005">
        <ele>1248.89</ele>
        <time>2013-02-09T08:51:47Z</time>
      </trkpt>
      <trkpt lat="45.46778" lon="5.94008">
        <ele>1251.29</ele>
        <time>2013-02-09T08:51:58Z</time>
      </trkpt>
      <trkpt lat="45.46766" lon="5.94011">
        <ele>1253.7</ele>
        <time>2013-02-09T08:52:09Z</time>
      </trkpt>
      <trkpt lat="45.46765" lon="5.94011">
        <ele>1254.18</ele>
        <time>2013-02-09T08:52:11Z</time>
      </trkpt>
      <trkpt lat="45.46759" lon="5.94014">
        <ele>1255.62</ele>
        <time>2013-02-09T08:52:19Z</time>
      </trkpt>
      <trkpt lat="45.46756" lon="5.94006">
        <ele>1256.1</ele>
        <time>2013-02-09T08:52:29Z</time>
      </trkpt>
      <trkpt lat="45.4676" lon="5.93999">
        <ele>1258.98</ele>
        <time>2013-02-09T08:52:42Z</time>
      </trkpt>
      <trkpt lat="45.46754" lon="5.93997">
        <ele>1261.87</ele>
        <time>2013-02-09T08:52:59Z</time>
      </trkpt>
      <trkpt lat="45.46744" lon="5.93998">
        <ele>1263.79</ele>
        <time>2013-02-09T08:53:16Z</time>
      </trkpt>
      <trkpt lat="45.46747" lon="5.93991">
        <ele>1266.67</ele>
        <time>2013-02-09T08:53:32Z</time>
      </trkpt>
      <trkpt lat="45.4674" lon="5.93988">
        <ele>1269.08</ele>
        <time>2013-02-09T08:53:47Z</time>
      </trkpt>
      <trkpt lat="45.46739" lon="5.93988">
        <ele>1269.56</ele>
        <time>2013-02-09T08:53:48Z</time>
      </trkpt>
      <trkpt lat="45.46734" lon="5.93987">
        <ele>1271.48</ele>
        <time>2013-02-09T08:53:57Z</time>
      </trkpt>
      <trkpt lat="45.46732" lon="5.93984">
        <ele>1271.96</ele>
        <time>2013-02-09T08:54:00Z</time>
      </trkpt>
      <trkpt lat="45.46726" lon="5.93984">
        <ele>1274.36</ele>
        <time>2013-02-09T08:54:12Z</time>
      </trkpt>
      <trkpt lat="45.46716" lon="5.93984">
        <ele>1276.77</ele>
        <time>2013-02-09T08:54:25Z</time>
      </trkpt>
      <trkpt lat="45.46713" lon="5.93981">
        <ele>1278.69</ele>
        <time>2013-02-09T08:54:34Z</time>
      </trkpt>
      <trkpt lat="45.46705" lon="5.93976">
        <ele>1281.09</ele>
        <time>2013-02-09T08:54:48Z</time>
      </trkpt>
      <trkpt lat="45.46703" lon="5.93975">
        <ele>1282.06</ele>
        <time>2013-02-09T08:54:51Z</time>
      </trkpt>
      <trkpt lat="45.46698" lon="5.93972">
        <ele>1284.94</ele>
        <time>2013-02-09T08:55:03Z</time>
      </trkpt>
      <trkpt lat="45.46691" lon="5.93971">
        <ele>1287.34</ele>
        <time>2013-02-09T08:55:16Z</time>
      </trkpt>
      <trkpt lat="45.46681" lon="5.93975">
        <ele>1289.75</ele>
        <time>2013-02-09T08:55:29Z</time>
      </trkpt>
      <trkpt lat="45.46677" lon="5.93967">
        <ele>1292.63</ele>
        <time>2013-02-09T08:55:46Z</time>
      </trkpt>
      <trkpt lat="45.46673" lon="5.93961">
        <ele>1295.51</ele>
        <time>2013-02-09T08:56:02Z</time>
      </trkpt>
      <trkpt lat="45.46669" lon="5.93963">
        <ele>1295.99</ele>
        <time>2013-02-09T08:56:09Z</time>
      </trkpt>
      <trkpt lat="45.46658" lon="5.93961">
        <ele>1296.96</ele>
        <time>2013-02-09T08:56:24Z</time>
      </trkpt>
      <trkpt lat="45.46662" lon="5.93952">
        <ele>1299.84</ele>
        <time>2013-02-09T08:56:40Z</time>
      </trkpt>
      <trkpt lat="45.46649" lon="5.93953">
        <ele>1302.72</ele>
        <time>2013-02-09T08:56:58Z</time>
      </trkpt>
      <trkpt lat="45.46645" lon="5.93945">
        <ele>1306.09</ele>
        <time>2013-02-09T08:57:14Z</time>
      </trkpt>
      <trkpt lat="45.46638" lon="5.93943">
        <ele>1308.97</ele>
        <time>2013-02-09T08:57:27Z</time>
      </trkpt>
      <trkpt lat="45.46634" lon="5.93939">
        <ele>1311.86</ele>
        <time>2013-02-09T08:57:45Z</time>
      </trkpt>
      <trkpt lat="45.46628" lon="5.93928">
        <ele>1314.74</ele>
        <time>2013-02-09T08:58:41Z</time>
      </trkpt>
      <trkpt lat="45.46632" lon="5.93918">
        <ele>1317.62</ele>
        <time>2013-02-09T08:58:52Z</time>
      </trkpt>
      <trkpt lat="45.46642" lon="5.93907">
        <ele>1320.99</ele>
        <time>2013-02-09T08:59:07Z</time>
      </trkpt>
      <trkpt lat="45.46645" lon="5.93896">
        <ele>1323.87</ele>
        <time>2013-02-09T08:59:28Z</time>
      </trkpt>
      <trkpt lat="45.46649" lon="5.93887">
        <ele>1327.24</ele>
        <time>2013-02-09T08:59:45Z</time>
      </trkpt>
      <trkpt lat="45.46646" lon="5.93878">
        <ele>1329.64</ele>
        <time>2013-02-09T09:00:02Z</time>
      </trkpt>
      <trkpt lat="45.46638" lon="5.93873">
        <ele>1332.04</ele>
        <time>2013-02-09T09:00:15Z</time>
      </trkpt>
      <trkpt lat="45.46632" lon="5.93872">
        <ele>1335.41</ele>
        <time>2013-02-09T09:00:31Z</time>
      </trkpt>
      <trkpt lat="45.46633" lon="5.93855">
        <ele>1337.81</ele>
        <time>2013-02-09T09:00:49Z</time>
      </trkpt>
      <trkpt lat="45.46631" lon="5.93851">
        <ele>1340.22</ele>
        <time>2013-02-09T09:00:59Z</time>
      </trkpt>
      <trkpt lat="45.46631" lon="5.9385">
        <ele>1342.14</ele>
        <time>2013-02-09T09:01:09Z</time>
      </trkpt>
      <trkpt lat="45.46626" lon="5.93846">
        <ele>1343.58</ele>
        <time>2013-02-09T09:01:29Z</time>
      </trkpt>
      <trkpt lat="45.46628" lon="5.93842">
        <ele>1345.98</ele>
        <time>2013-02-09T09:01:45Z</time>
      </trkpt>
      <trkpt lat="45.46629" lon="5.93839">
        <ele>1347.91</ele>
        <time>2013-02-09T09:01:55Z</time>
      </trkpt>
      <trkpt lat="45.46633" lon="5.9383">
        <ele>1350.31</ele>
        <time>2013-02-09T09:02:16Z</time>
      </trkpt>
      <trkpt lat="45.46632" lon="5.93828">
        <ele>1352.23</ele>
        <time>2013-02-09T09:02:33Z</time>
      </trkpt>
      <trkpt lat="45.46626" lon="5.93828">
        <ele>1353.67</ele>
        <time>2013-02-09T09:02:58Z</time>
      </trkpt>
      <trkpt lat="45.46623" lon="5.93828">
        <ele>1355.12</ele>
        <time>2013-02-09T09:03:15Z</time>
      </trkpt>
      <trkpt lat="45.46622" lon="5.93828">
        <ele>1356.56</ele>
        <time>2013-02-09T09:04:07Z</time>
      </trkpt>
      <trkpt lat="45.46624" lon="5.9382">
        <ele>1358.48</ele>
        <time>2013-02-09T09:04:23Z</time>
      </trkpt>
      <trkpt lat="45.46617" lon="5.93819">
        <ele>1360.4</ele>
        <time>2013-02-09T09:04:34Z</time>
      </trkpt>
      <trkpt lat="45.46609" lon="5.93815">
        <ele>1363.29</ele>
        <time>2013-02-09T09:04:49Z</time>
      </trkpt>
      <trkpt lat="45.46602" lon="5.93808">
        <ele>1366.17</ele>
        <time>2013-02-09T09:05:02Z</time>
      </trkpt>
      <trkpt lat="45.46599" lon="5.93804">
        <ele>1367.61</ele>
        <time>2013-02-09T09:05:11Z</time>
      </trkpt>
      <trkpt lat="45.46598" lon="5.93798">
        <ele>1370.02</ele>
        <time>2013-02-09T09:05:28Z</time>
      </trkpt>
      <trkpt lat="45.46603" lon="5.93792">
        <ele>1371.94</ele>
        <time>2013-02-09T09:05:49Z</time>
      </trkpt>
      <trkpt lat="45.46608" lon="5.93791">
        <ele>1373.86</ele>
        <time>2013-02-09T09:06:01Z</time>
      </trkpt>
      <trkpt lat="45.466" lon="5.93787">
        <ele>1375.78</ele>
        <time>2013-02-09T09:06:12Z</time>
      </trkpt>
      <trkpt lat="45.46586" lon="5.93781">
        <ele>1378.67</ele>
        <time>2013-02-09T09:06:34Z</time>
      </trkpt>
      <trkpt lat="45.46576" lon="5.93782">
        <ele>1381.07</ele>
        <time>2013-02-09T09:06:50Z</time>
      </trkpt>
      <trkpt lat="45.46567" lon="5.93787">
        <ele>1383.47</ele>
        <time>2013-02-09T09:07:04Z</time>
      </trkpt>
      <trkpt lat="45.46567" lon="5.93784">
        <ele>1385.4</ele>
        <time>2013-02-09T09:07:23Z</time>
      </trkpt>
      <trkpt lat="45.46572" lon="5.93769">
        <ele>1388.28</ele>
        <time>2013-02-09T09:07:44Z</time>
      </trkpt>
      <trkpt lat="45.46566" lon="5.93769">
        <ele>1390.68</ele>
        <time>2013-02-09T09:08:03Z</time>
      </trkpt>
      <trkpt lat="45.46571" lon="5.93762">
        <ele>1393.09</ele>
        <time>2013-02-09T09:08:22Z</time>
      </trkpt>
      <trkpt lat="45.46574" lon="5.93753">
        <ele>1395.49</ele>
        <time>2013-02-09T09:08:40Z</time>
      </trkpt>
      <trkpt lat="45.46568" lon="5.93751">
        <ele>1398.37</ele>
        <time>2013-02-09T09:09:02Z</time>
      </trkpt>
      <trkpt lat="45.46575" lon="5.93736">
        <ele>1401.26</ele>
        <time>2013-02-09T09:09:21Z</time>
      </trkpt>
      <trkpt lat="45.4658" lon="5.93731">
        <ele>1404.62</ele>
        <time>2013-02-09T09:09:34Z</time>
      </trkpt>
      <trkpt lat="45.46582" lon="5.93724">
        <ele>1407.51</ele>
        <time>2013-02-09T09:09:50Z</time>
      </trkpt>
      <trkpt lat="45.46579" lon="5.93717">
        <ele>1410.87</ele>
        <time>2013-02-09T09:10:06Z</time>
      </trkpt>
      <trkpt lat="45.46572" lon="5.93709">
        <ele>1413.76</ele>
        <time>2013-02-09T09:10:20Z</time>
      </trkpt>
      <trkpt lat="45.46574" lon="5.93701">
        <ele>1416.64</ele>
        <time>2013-02-09T09:10:40Z</time>
      </trkpt>
      <trkpt lat="45.46579" lon="5.93695">
        <ele>1420</ele>
        <time>2013-02-09T09:11:08Z</time>
      </trkpt>
      <trkpt lat="45.46582" lon="5.93687">
        <ele>1422.89</ele>
        <time>2013-02-09T09:11:22Z</time>
      </trkpt>
      <trkpt lat="45.4658" lon="5.93677">
        <ele>1425.77</ele>
        <time>2013-02-09T09:11:38Z</time>
      </trkpt>
      <trkpt lat="45.46581" lon="5.93677">
        <ele>1426.25</ele>
        <time>2013-02-09T09:11:41Z</time>
      </trkpt>
      <trkpt lat="45.4658" lon="5.93671">
        <ele>1428.18</ele>
        <time>2013-02-09T09:11:53Z</time>
      </trkpt>
      <trkpt lat="45.46582" lon="5.93668">
        <ele>1430.58</ele>
        <time>2013-02-09T09:12:08Z</time>
      </trkpt>
      <trkpt lat="45.46579" lon="5.93668">
        <ele>1431.54</ele>
        <time>2013-02-09T09:12:22Z</time>
      </trkpt>
      <trkpt lat="45.46579" lon="5.93663">
        <ele>1432.5</ele>
        <time>2013-02-09T09:12:35Z</time>
      </trkpt>
      <trkpt lat="45.46578" lon="5.93663">
        <ele>1433.46</ele>
        <time>2013-02-09T09:12:50Z</time>
      </trkpt>
      <trkpt lat="45.46581" lon="5.93658">
        <ele>1436.35</ele>
        <time>2013-02-09T09:13:29Z</time>
      </trkpt>
      <trkpt lat="45.4658" lon="5.93655">
        <ele>1437.31</ele>
        <time>2013-02-09T09:13:41Z</time>
      </trkpt>
      <trkpt lat="45.46577" lon="5.93654">
        <ele>1440.19</ele>
        <time>2013-02-09T09:13:53Z</time>
      </trkpt>
      <trkpt lat="45.4657" lon="5.93648">
        <ele>1443.08</ele>
        <time>2013-02-09T09:14:07Z</time>
      </trkpt>
      <trkpt lat="45.46566" lon="5.93642">
        <ele>1445.96</ele>
        <time>2013-02-09T09:14:26Z</time>
      </trkpt>
      <trkpt lat="45.46567" lon="5.93637">
        <ele>1448.84</ele>
        <time>2013-02-09T09:14:51Z</time>
      </trkpt>
      <trkpt lat="45.46568" lon="5.93631">
        <ele>1451.73</ele>
        <time>2013-02-09T09:15:03Z</time>
      </trkpt>
      <trkpt lat="45.46569" lon="5.93625">
        <ele>1454.61</ele>
        <time>2013-02-09T09:15:24Z</time>
      </trkpt>
      <trkpt lat="45.46568" lon="5.93623">
        <ele>1455.57</ele>
        <time>2013-02-09T09:15:28Z</time>
      </trkpt>
      <trkpt lat="45.46566" lon="5.93623">
        <ele>1456.05</ele>
        <time>2013-02-09T09:15:42Z</time>
      </trkpt>
      <trkpt lat="45.46562" lon="5.93623">
        <ele>1457.5</ele>
        <time>2013-02-09T09:15:52Z</time>
      </trkpt>
      <trkpt lat="45.46563" lon="5.9362">
        <ele>1459.9</ele>
        <time>2013-02-09T09:16:12Z</time>
      </trkpt>
      <trkpt lat="45.46557" lon="5.93623">
        <ele>1462.3</ele>
        <time>2013-02-09T09:16:28Z</time>
      </trkpt>
      <trkpt lat="45.46553" lon="5.93624">
        <ele>1463.26</ele>
        <time>2013-02-09T09:16:36Z</time>
      </trkpt>
      <trkpt lat="45.46552" lon="5.93624">
        <ele>1463.26</ele>
        <time>2013-02-09T09:16:38Z</time>
      </trkpt>
      <trkpt lat="45.46546" lon="5.93621">
        <ele>1465.67</ele>
        <time>2013-02-09T09:16:54Z</time>
      </trkpt>
      <trkpt lat="45.46547" lon="5.93615">
        <ele>1467.11</ele>
        <time>2013-02-09T09:17:15Z</time>
      </trkpt>
      <trkpt lat="45.46539" lon="5.93617">
        <ele>1469.03</ele>
        <time>2013-02-09T09:17:34Z</time>
      </trkpt>
      <trkpt lat="45.46535" lon="5.93618">
        <ele>1470.95</ele>
        <time>2013-02-09T09:17:50Z</time>
      </trkpt>
      <trkpt lat="45.46535" lon="5.93618">
        <ele>1470.95</ele>
        <time>2013-02-09T09:17:51Z</time>
      </trkpt>
      <trkpt lat="45.46535" lon="5.93613">
        <ele>1472.4</ele>
        <time>2013-02-09T09:18:03Z</time>
      </trkpt>
      <trkpt lat="45.46539" lon="5.93608">
        <ele>1474.8</ele>
        <time>2013-02-09T09:18:22Z</time>
      </trkpt>
      <trkpt lat="45.46532" lon="5.93604">
        <ele>1477.2</ele>
        <time>2013-02-09T09:18:45Z</time>
      </trkpt>
      <trkpt lat="45.46527" lon="5.93606">
        <ele>1479.13</ele>
        <time>2013-02-09T09:18:56Z</time>
      </trkpt>
      <trkpt lat="45.46526" lon="5.93603">
        <ele>1481.05</ele>
        <time>2013-02-09T09:19:14Z</time>
      </trkpt>
      <trkpt lat="45.4653" lon="5.93591">
        <ele>1483.93</ele>
        <time>2013-02-09T09:19:36Z</time>
      </trkpt>
      <trkpt lat="45.46523" lon="5.93594">
        <ele>1485.85</ele>
        <time>2013-02-09T09:19:57Z</time>
      </trkpt>
      <trkpt lat="45.46519" lon="5.93596">
        <ele>1487.78</ele>
        <time>2013-02-09T09:20:10Z</time>
      </trkpt>
      <trkpt lat="45.46521" lon="5.9359">
        <ele>1489.22</ele>
        <time>2013-02-09T09:20:34Z</time>
      </trkpt>
      <trkpt lat="45.46525" lon="5.93581">
        <ele>1491.14</ele>
        <time>2013-02-09T09:20:59Z</time>
      </trkpt>
      <trkpt lat="45.46526" lon="5.93578">
        <ele>1492.1</ele>
        <time>2013-02-09T09:21:15Z</time>
      </trkpt>
      <trkpt lat="45.46531" lon="5.93571">
        <ele>1494.51</ele>
        <time>2013-02-09T09:21:34Z</time>
      </trkpt>
      <trkpt lat="45.46533" lon="5.93565">
        <ele>1495.47</ele>
        <time>2013-02-09T09:21:47Z</time>
      </trkpt>
      <trkpt lat="45.46535" lon="5.93562">
        <ele>1496.43</ele>
        <time>2013-02-09T09:22:15Z</time>
      </trkpt>
      <trkpt lat="45.46539" lon="5.93556">
        <ele>1497.39</ele>
        <time>2013-02-09T09:22:46Z</time>
      </trkpt>
      <trkpt lat="45.4654" lon="5.93549">
        <ele>1497.87</ele>
        <time>2013-02-09T09:23:04Z</time>
      </trkpt>
      <trkpt lat="45.46544" lon="5.93543">
        <ele>1498.83</ele>
        <time>2013-02-09T09:23:12Z</time>
      </trkpt>
      <trkpt lat="45.46552" lon="5.93536">
        <ele>1497.87</ele>
        <time>2013-02-09T09:23:22Z</time>
      </trkpt>
      <trkpt lat="45.46556" lon="5.93533">
        <ele>1498.35</ele>
        <time>2013-02-09T09:23:28Z</time>
      </trkpt>
      <trkpt lat="45.46564" lon="5.93525">
        <ele>1498.35</ele>
        <time>2013-02-09T09:23:42Z</time>
      </trkpt>
      <trkpt lat="45.46569" lon="5.9352">
        <ele>1499.31</ele>
        <time>2013-02-09T09:23:53Z</time>
      </trkpt>
      <trkpt lat="45.46575" lon="5.93514">
        <ele>1500.27</ele>
        <time>2013-02-09T09:24:04Z</time>
      </trkpt>
      <trkpt lat="45.46578" lon="5.93511">
        <ele>1501.24</ele>
        <time>2013-02-09T09:24:16Z</time>
      </trkpt>
      <trkpt lat="45.46581" lon="5.93507">
        <ele>1501.72</ele>
        <time>2013-02-09T09:24:25Z</time>
      </trkpt>
      <trkpt lat="45.46584" lon="5.93505">
        <ele>1503.64</ele>
        <time>2013-02-09T09:24:38Z</time>
      </trkpt>
      <trkpt lat="45.46583" lon="5.93505">
        <ele>1503.64</ele>
        <time>2013-02-09T09:25:05Z</time>
      </trkpt>
      <trkpt lat="45.46579" lon="5.93504">
        <ele>1506.04</ele>
        <time>2013-02-09T09:25:17Z</time>
      </trkpt>
      <trkpt lat="45.46575" lon="5.93503">
        <ele>1507.48</ele>
        <time>2013-02-09T09:25:27Z</time>
      </trkpt>
      <trkpt lat="45.46572" lon="5.93501">
        <ele>1509.41</ele>
        <time>2013-02-09T09:25:39Z</time>
      </trkpt>
      <trkpt lat="45.46574" lon="5.93499">
        <ele>1509.89</ele>
        <time>2013-02-09T09:25:48Z</time>
      </trkpt>
      <trkpt lat="45.46581" lon="5.93495">
        <ele>1511.81</ele>
        <time>2013-02-09T09:26:01Z</time>
      </trkpt>
      <trkpt lat="45.46584" lon="5.93487">
        <ele>1513.73</ele>
        <time>2013-02-09T09:26:14Z</time>
      </trkpt>
      <trkpt lat="45.46584" lon="5.93488">
        <ele>1514.21</ele>
        <time>2013-02-09T09:26:30Z</time>
      </trkpt>
      <trkpt lat="45.4658" lon="5.93488">
        <ele>1515.18</ele>
        <time>2013-02-09T09:26:39Z</time>
      </trkpt>
      <trkpt lat="45.46574" lon="5.93487">
        <ele>1517.1</ele>
        <time>2013-02-09T09:26:53Z</time>
      </trkpt>
      <trkpt lat="45.46578" lon="5.93483">
        <ele>1517.58</ele>
        <time>2013-02-09T09:27:03Z</time>
      </trkpt>
      <trkpt lat="45.4658" lon="5.93477">
        <ele>1519.98</ele>
        <time>2013-02-09T09:27:16Z</time>
      </trkpt>
      <trkpt lat="45.4658" lon="5.93479">
        <ele>1520.46</ele>
        <time>2013-02-09T09:27:33Z</time>
      </trkpt>
      <trkpt lat="45.46576" lon="5.9348">
        <ele>1520.94</ele>
        <time>2013-02-09T09:27:56Z</time>
      </trkpt>
      <trkpt lat="45.46571" lon="5.93481">
        <ele>1521.9</ele>
        <time>2013-02-09T09:28:08Z</time>
      </trkpt>
      <trkpt lat="45.46565" lon="5.9348">
        <ele>1523.83</ele>
        <time>2013-02-09T09:28:19Z</time>
      </trkpt>
      <trkpt lat="45.46565" lon="5.93478">
        <ele>1524.31</ele>
        <time>2013-02-09T09:28:31Z</time>
      </trkpt>
      <trkpt lat="45.46567" lon="5.93473">
        <ele>1526.23</ele>
        <time>2013-02-09T09:28:41Z</time>
      </trkpt>
      <trkpt lat="45.46566" lon="5.93471">
        <ele>1528.63</ele>
        <time>2013-02-09T09:29:00Z</time>
      </trkpt>
      <trkpt lat="45.4656" lon="5.9347">
        <ele>1530.56</ele>
        <time>2013-02-09T09:29:12Z</time>
      </trkpt>
      <trkpt lat="45.46559" lon="5.93467">
        <ele>1532</ele>
        <time>2013-02-09T09:29:25Z</time>
      </trkpt>
      <trkpt lat="45.46562" lon="5.93464">
        <ele>1533.44</ele>
        <time>2013-02-09T09:29:37Z</time>
      </trkpt>
      <trkpt lat="45.4656" lon="5.9346">
        <ele>1533.92</ele>
        <time>2013-02-09T09:29:53Z</time>
      </trkpt>
      <trkpt lat="45.46563" lon="5.93455">
        <ele>1536.32</ele>
        <time>2013-02-09T09:30:18Z</time>
      </trkpt>
      <trkpt lat="45.46561" lon="5.93455">
        <ele>1537.29</ele>
        <time>2013-02-09T09:30:29Z</time>
      </trkpt>
      <trkpt lat="45.46564" lon="5.9345">
        <ele>1538.73</ele>
        <time>2013-02-09T09:30:44Z</time>
      </trkpt>
      <trkpt lat="45.46564" lon="5.9345">
        <ele>1539.69</ele>
        <time>2013-02-09T09:30:57Z</time>
      </trkpt>
      <trkpt lat="45.46567" lon="5.93448">
        <ele>1541.61</ele>
        <time>2013-02-09T09:31:14Z</time>
      </trkpt>
      <trkpt lat="45.46567" lon="5.93447">
        <ele>1541.13</ele>
        <time>2013-02-09T09:31:26Z</time>
      </trkpt>
      <trkpt lat="45.46567" lon="5.93447">
        <ele>1541.13</ele>
        <time>2013-02-09T09:32:03Z</time>
      </trkpt>
      <trkpt lat="45.46566" lon="5.93447">
        <ele>1540.65</ele>
        <time>2013-02-09T09:33:00Z</time>
      </trkpt>
      <trkpt lat="45.46565" lon="5.93446">
        <ele>1541.13</ele>
        <time>2013-02-09T09:33:02Z</time>
      </trkpt>
      <trkpt lat="45.46563" lon="5.93445">
        <ele>1541.61</ele>
        <time>2013-02-09T09:33:14Z</time>
      </trkpt>
      <trkpt lat="45.46564" lon="5.93443">
        <ele>1542.57</ele>
        <time>2013-02-09T09:33:43Z</time>
      </trkpt>
      <trkpt lat="45.46561" lon="5.93444">
        <ele>1543.53</ele>
        <time>2013-02-09T09:34:07Z</time>
      </trkpt>
      <trkpt lat="45.46564" lon="5.93437">
        <ele>1545.46</ele>
        <time>2013-02-09T09:34:21Z</time>
      </trkpt>
      <trkpt lat="45.46564" lon="5.93437">
        <ele>1545.94</ele>
        <time>2013-02-09T09:34:33Z</time>
      </trkpt>
      <trkpt lat="45.46564" lon="5.93437">
        <ele>1545.94</ele>
        <time>2013-02-09T09:34:34Z</time>
      </trkpt>
      <trkpt lat="45.46563" lon="5.93435">
        <ele>1547.38</ele>
        <time>2013-02-09T09:34:44Z</time>
      </trkpt>
      <trkpt lat="45.46565" lon="5.93434">
        <ele>1547.86</ele>
        <time>2013-02-09T09:34:54Z</time>
      </trkpt>
      <trkpt lat="45.46565" lon="5.93433">
        <ele>1548.82</ele>
        <time>2013-02-09T09:35:06Z</time>
      </trkpt>
      <trkpt lat="45.4656" lon="5.93431">
        <ele>1550.26</ele>
        <time>2013-02-09T09:35:18Z</time>
      </trkpt>
      <trkpt lat="45.46555" lon="5.93432">
        <ele>1551.22</ele>
        <time>2013-02-09T09:35:29Z</time>
      </trkpt>
      <trkpt lat="45.46555" lon="5.93429">
        <ele>1552.67</ele>
        <time>2013-02-09T09:35:40Z</time>
      </trkpt>
      <trkpt lat="45.4656" lon="5.93422">
        <ele>1554.59</ele>
        <time>2013-02-09T09:35:52Z</time>
      </trkpt>
      <trkpt lat="45.46562" lon="5.93421">
        <ele>1556.03</ele>
        <time>2013-02-09T09:36:05Z</time>
      </trkpt>
      <trkpt lat="45.46559" lon="5.93419">
        <ele>1557.47</ele>
        <time>2013-02-09T09:36:16Z</time>
      </trkpt>
      <trkpt lat="45.4656" lon="5.93418">
        <ele>1558.92</ele>
        <time>2013-02-09T09:36:26Z</time>
      </trkpt>
      <trkpt lat="45.46562" lon="5.93413">
        <ele>1558.92</ele>
        <time>2013-02-09T09:36:46Z</time>
      </trkpt>
      <trkpt lat="45.46564" lon="5.93412">
        <ele>1558.92</ele>
        <time>2013-02-09T09:36:48Z</time>
      </trkpt>
      <trkpt lat="45.46565" lon="5.93412">
        <ele>1559.88</ele>
        <time>2013-02-09T09:37:02Z</time>
      </trkpt>
      <trkpt lat="45.46563" lon="5.93412">
        <ele>1560.84</ele>
        <time>2013-02-09T09:37:15Z</time>
      </trkpt>
      <trkpt lat="45.46564" lon="5.9341">
        <ele>1561.32</ele>
        <time>2013-02-09T09:37:28Z</time>
      </trkpt>
      <trkpt lat="45.46563" lon="5.93411">
        <ele>1561.32</ele>
        <time>2013-02-09T09:37:46Z</time>
      </trkpt>
      <trkpt lat="45.46563" lon="5.93411">
        <ele>1560.84</ele>
        <time>2013-02-09T09:38:06Z</time>
      </trkpt>
      <trkpt lat="45.46559" lon="5.93411">
        <ele>1562.76</ele>
        <time>2013-02-09T09:38:20Z</time>
      </trkpt>
      <trkpt lat="45.46557" lon="5.93411">
        <ele>1563.24</ele>
        <time>2013-02-09T09:38:36Z</time>
      </trkpt>
      <trkpt lat="45.46557" lon="5.93407">
        <ele>1564.68</ele>
        <time>2013-02-09T09:38:59Z</time>
      </trkpt>
      <trkpt lat="45.46559" lon="5.93404">
        <ele>1566.61</ele>
        <time>2013-02-09T09:39:13Z</time>
      </trkpt>
      <trkpt lat="45.46552" lon="5.93405">
        <ele>1567.57</ele>
        <time>2013-02-09T09:39:25Z</time>
      </trkpt>
      <trkpt lat="45.46554" lon="5.93402">
        <ele>1568.05</ele>
        <time>2013-02-09T09:39:38Z</time>
      </trkpt>
      <trkpt lat="45.46558" lon="5.93394">
        <ele>1570.45</ele>
        <time>2013-02-09T09:39:55Z</time>
      </trkpt>
      <trkpt lat="45.4656" lon="5.93392">
        <ele>1571.89</ele>
        <time>2013-02-09T09:40:13Z</time>
      </trkpt>
      <trkpt lat="45.46556" lon="5.93392">
        <ele>1572.85</ele>
        <time>2013-02-09T09:40:24Z</time>
      </trkpt>
      <trkpt lat="45.46554" lon="5.93391">
        <ele>1573.33</ele>
        <time>2013-02-09T09:40:35Z</time>
      </trkpt>
      <trkpt lat="45.46555" lon="5.93391">
        <ele>1573.82</ele>
        <time>2013-02-09T09:40:49Z</time>
      </trkpt>
      <trkpt lat="45.46555" lon="5.93389">
        <ele>1573.82</ele>
        <time>2013-02-09T09:41:06Z</time>
      </trkpt>
      <trkpt lat="45.46556" lon="5.93387">
        <ele>1575.26</ele>
        <time>2013-02-09T09:41:31Z</time>
      </trkpt>
      <trkpt lat="45.46559" lon="5.93381">
        <ele>1576.22</ele>
        <time>2013-02-09T09:41:46Z</time>
      </trkpt>
      <trkpt lat="45.46559" lon="5.93383">
        <ele>1576.7</ele>
        <time>2013-02-09T09:42:01Z</time>
      </trkpt>
      <trkpt lat="45.4655" lon="5.93382">
        <ele>1578.62</ele>
        <time>2013-02-09T09:42:17Z</time>
      </trkpt>
      <trkpt lat="45.46547" lon="5.93387">
        <ele>1580.54</ele>
        <time>2013-02-09T09:42:28Z</time>
      </trkpt>
      <trkpt lat="45.46543" lon="5.93394">
        <ele>1581.03</ele>
        <time>2013-02-09T09:42:37Z</time>
      </trkpt>
      <trkpt lat="45.46539" lon="5.93398">
        <ele>1580.54</ele>
        <time>2013-02-09T09:42:48Z</time>
      </trkpt>
      <trkpt lat="45.46535" lon="5.934">
        <ele>1581.51</ele>
        <time>2013-02-09T09:42:57Z</time>
      </trkpt>
      <trkpt lat="45.46533" lon="5.93401">
        <ele>1581.99</ele>
        <time>2013-02-09T09:43:00Z</time>
      </trkpt>
      <trkpt lat="45.4653" lon="5.93397">
        <ele>1583.91</ele>
        <time>2013-02-09T09:43:13Z</time>
      </trkpt>
      <trkpt lat="45.46528" lon="5.93401">
        <ele>1585.35</ele>
        <time>2013-02-09T09:43:30Z</time>
      </trkpt>
      <trkpt lat="45.46525" lon="5.93402">
        <ele>1586.31</ele>
        <time>2013-02-09T09:43:42Z</time>
      </trkpt>
      <trkpt lat="45.46517" lon="5.93404">
        <ele>1587.75</ele>
        <time>2013-02-09T09:43:54Z</time>
      </trkpt>
      <trkpt lat="45.46514" lon="5.93409">
        <ele>1589.2</ele>
        <time>2013-02-09T09:44:05Z</time>
      </trkpt>
      <trkpt lat="45.46509" lon="5.93412">
        <ele>1590.16</ele>
        <time>2013-02-09T09:44:43Z</time>
      </trkpt>
      <trkpt lat="45.4651" lon="5.93411">
        <ele>1589.2</ele>
        <time>2013-02-09T09:45:19Z</time>
      </trkpt>
      <trkpt lat="45.46502" lon="5.93414">
        <ele>1590.16</ele>
        <time>2013-02-09T09:46:20Z</time>
      </trkpt>
      <trkpt lat="45.46496" lon="5.93416">
        <ele>1592.56</ele>
        <time>2013-02-09T09:46:35Z</time>
      </trkpt>
      <trkpt lat="45.46499" lon="5.93412">
        <ele>1593.04</ele>
        <time>2013-02-09T09:46:41Z</time>
      </trkpt>
      <trkpt lat="45.46503" lon="5.93408">
        <ele>1594</ele>
        <time>2013-02-09T09:46:50Z</time>
      </trkpt>
      <trkpt lat="45.46504" lon="5.93404">
        <ele>1594.48</ele>
        <time>2013-02-09T09:46:52Z</time>
      </trkpt>
      <trkpt lat="45.46507" lon="5.934">
        <ele>1595.45</ele>
        <time>2013-02-09T09:47:05Z</time>
      </trkpt>
      <trkpt lat="45.46502" lon="5.93402">
        <ele>1597.37</ele>
        <time>2013-02-09T09:47:19Z</time>
      </trkpt>
      <trkpt lat="45.46496" lon="5.93404">
        <ele>1598.33</ele>
        <time>2013-02-09T09:47:29Z</time>
      </trkpt>
      <trkpt lat="45.46492" lon="5.93407">
        <ele>1599.77</ele>
        <time>2013-02-09T09:47:38Z</time>
      </trkpt>
      <trkpt lat="45.46492" lon="5.93407">
        <ele>1600.73</ele>
        <time>2013-02-09T09:47:49Z</time>
      </trkpt>
      <trkpt lat="45.46494" lon="5.93404">
        <ele>1602.17</ele>
        <time>2013-02-09T09:48:01Z</time>
      </trkpt>
      <trkpt lat="45.4649" lon="5.93407">
        <ele>1602.17</ele>
        <time>2013-02-09T09:48:09Z</time>
      </trkpt>
      <trkpt lat="45.46483" lon="5.93411">
        <ele>1603.62</ele>
        <time>2013-02-09T09:48:22Z</time>
      </trkpt>
      <trkpt lat="45.46476" lon="5.93415">
        <ele>1605.54</ele>
        <time>2013-02-09T09:48:33Z</time>
      </trkpt>
      <trkpt lat="45.46469" lon="5.93424">
        <ele>1606.5</ele>
        <time>2013-02-09T09:48:46Z</time>
      </trkpt>
      <trkpt lat="45.46458" lon="5.93434">
        <ele>1607.46</ele>
        <time>2013-02-09T09:49:00Z</time>
      </trkpt>
      <trkpt lat="45.46448" lon="5.93449">
        <ele>1608.9</ele>
        <time>2013-02-09T09:49:16Z</time>
      </trkpt>
      <trkpt lat="45.46439" lon="5.93462">
        <ele>1609.38</ele>
        <time>2013-02-09T09:49:31Z</time>
      </trkpt>
      <trkpt lat="45.46424" lon="5.93483">
        <ele>1607.46</ele>
        <time>2013-02-09T09:49:44Z</time>
      </trkpt>
      <trkpt lat="45.46418" lon="5.93498">
        <ele>1605.54</ele>
        <time>2013-02-09T09:49:56Z</time>
      </trkpt>
      <trkpt lat="45.46418" lon="5.93499">
        <ele>1605.54</ele>
        <time>2013-02-09T09:49:58Z</time>
      </trkpt>
      <trkpt lat="45.46416" lon="5.93503">
        <ele>1605.54</ele>
        <time>2013-02-09T09:50:01Z</time>
      </trkpt>
      <trkpt lat="45.46403" lon="5.9353">
        <ele>1602.17</ele>
        <time>2013-02-09T09:50:15Z</time>
      </trkpt>
      <trkpt lat="45.46399" lon="5.93538">
        <ele>1599.77</ele>
        <time>2013-02-09T09:50:25Z</time>
      </trkpt>
      <trkpt lat="45.46393" lon="5.93545">
        <ele>1598.33</ele>
        <time>2013-02-09T09:50:37Z</time>
      </trkpt>
      <trkpt lat="45.46382" lon="5.93562">
        <ele>1596.41</ele>
        <time>2013-02-09T09:50:48Z</time>
      </trkpt>
      <trkpt lat="45.46382" lon="5.93562">
        <ele>1594.48</ele>
        <time>2013-02-09T09:50:51Z</time>
      </trkpt>
      <trkpt lat="45.46382" lon="5.93563">
        <ele>1595.45</ele>
        <time>2013-02-09T09:51:30Z</time>
      </trkpt>
      <trkpt lat="45.46377" lon="5.93572">
        <ele>1598.33</ele>
        <time>2013-02-09T09:51:50Z</time>
      </trkpt>
      <trkpt lat="45.46369" lon="5.93586">
        <ele>1601.21</ele>
        <time>2013-02-09T09:52:23Z</time>
      </trkpt>
      <trkpt lat="45.46359" lon="5.93599">
        <ele>1602.17</ele>
        <time>2013-02-09T09:52:40Z</time>
      </trkpt>
      <trkpt lat="45.46355" lon="5.93608">
        <ele>1602.66</ele>
        <time>2013-02-09T09:52:53Z</time>
      </trkpt>
      <trkpt lat="45.46354" lon="5.9361">
        <ele>1603.14</ele>
        <time>2013-02-09T09:53:08Z</time>
      </trkpt>
      <trkpt lat="45.46352" lon="5.93614">
        <ele>1603.62</ele>
        <time>2013-02-09T09:53:21Z</time>
      </trkpt>
      <trkpt lat="45.46351" lon="5.93614">
        <ele>1603.14</ele>
        <time>2013-02-09T09:53:57Z</time>
      </trkpt>
      <trkpt lat="45.4635" lon="5.93613">
        <ele>1604.1</ele>
        <time>2013-02-09T09:54:15Z</time>
      </trkpt>
      <trkpt lat="45.46351" lon="5.93613">
        <ele>1604.58</ele>
        <time>2013-02-09T09:54:26Z</time>
      </trkpt>
      <trkpt lat="45.4635" lon="5.93615">
        <ele>1605.54</ele>
        <time>2013-02-09T09:54:45Z</time>
      </trkpt>
      <trkpt lat="45.46349" lon="5.93618">
        <ele>1606.98</ele>
        <time>2013-02-09T09:55:00Z</time>
      </trkpt>
      <trkpt lat="45.46348" lon="5.93619">
        <ele>1608.42</ele>
        <time>2013-02-09T09:55:14Z</time>
      </trkpt>
      <trkpt lat="45.46348" lon="5.93622">
        <ele>1609.38</ele>
        <time>2013-02-09T09:55:27Z</time>
      </trkpt>
      <trkpt lat="45.46346" lon="5.93626">
        <ele>1610.83</ele>
        <time>2013-02-09T09:55:41Z</time>
      </trkpt>
      <trkpt lat="45.46345" lon="5.9363">
        <ele>1612.27</ele>
        <time>2013-02-09T09:55:54Z</time>
      </trkpt>
      <trkpt lat="45.46344" lon="5.93636">
        <ele>1614.19</ele>
        <time>2013-02-09T09:56:09Z</time>
      </trkpt>
      <trkpt lat="45.4634" lon="5.93637">
        <ele>1615.15</ele>
        <time>2013-02-09T09:56:23Z</time>
      </trkpt>
      <trkpt lat="45.46338" lon="5.93635">
        <ele>1617.07</ele>
        <time>2013-02-09T09:56:35Z</time>
      </trkpt>
      <trkpt lat="45.46334" lon="5.93635">
        <ele>1617.56</ele>
        <time>2013-02-09T09:56:49Z</time>
      </trkpt>
      <trkpt lat="45.46331" lon="5.93641">
        <ele>1615.63</ele>
        <time>2013-02-09T09:57:06Z</time>
      </trkpt>
      <trkpt lat="45.46327" lon="5.93648">
        <ele>1613.23</ele>
        <time>2013-02-09T09:57:43Z</time>
      </trkpt>
      <trkpt lat="45.46323" lon="5.93652">
        <ele>1611.31</ele>
        <time>2013-02-09T09:58:25Z</time>
      </trkpt>
      <trkpt lat="45.46317" lon="5.93649">
        <ele>1610.83</ele>
        <time>2013-02-09T09:58:45Z</time>
      </trkpt>
      <trkpt lat="45.46311" lon="5.93642">
        <ele>1610.35</ele>
        <time>2013-02-09T09:59:05Z</time>
      </trkpt>
      <trkpt lat="45.4631" lon="5.93638">
        <ele>1611.79</ele>
        <time>2013-02-09T09:59:18Z</time>
      </trkpt>
      <trkpt lat="45.46309" lon="5.93635">
        <ele>1613.23</ele>
        <time>2013-02-09T09:59:38Z</time>
      </trkpt>
      <trkpt lat="45.46309" lon="5.93635">
        <ele>1612.75</ele>
        <time>2013-02-09T10:00:54Z</time>
      </trkpt>
      <trkpt lat="45.46309" lon="5.93635">
        <ele>1612.75</ele>
        <time>2013-02-09T10:03:58Z</time>
      </trkpt>
      <trkpt lat="45.46308" lon="5.93636">
        <ele>1612.27</ele>
        <time>2013-02-09T10:04:15Z</time>
      </trkpt>
      <trkpt lat="45.46304" lon="5.93636">
        <ele>1613.23</ele>
        <time>2013-02-09T10:04:22Z</time>
      </trkpt>
      <trkpt lat="45.46294" lon="5.93627">
        <ele>1610.83</ele>
        <time>2013-02-09T10:04:31Z</time>
      </trkpt>
      <trkpt lat="45.46287" lon="5.93618">
        <ele>1610.83</ele>
        <time>2013-02-09T10:04:44Z</time>
      </trkpt>
      <trkpt lat="45.46288" lon="5.93615">
        <ele>1612.27</ele>
        <time>2013-02-09T10:04:55Z</time>
      </trkpt>
      <trkpt lat="45.46292" lon="5.93613">
        <ele>1613.71</ele>
        <time>2013-02-09T10:05:04Z</time>
      </trkpt>
      <trkpt lat="45.46292" lon="5.9361">
        <ele>1614.19</ele>
        <time>2013-02-09T10:05:22Z</time>
      </trkpt>
      <trkpt lat="45.46283" lon="5.93604">
        <ele>1615.63</ele>
        <time>2013-02-09T10:05:36Z</time>
      </trkpt>
      <trkpt lat="45.46279" lon="5.93597">
        <ele>1618.52</ele>
        <time>2013-02-09T10:05:51Z</time>
      </trkpt>
      <trkpt lat="45.46271" lon="5.9359">
        <ele>1619.96</ele>
        <time>2013-02-09T10:06:04Z</time>
      </trkpt>
      <trkpt lat="45.46265" lon="5.93585">
        <ele>1621.88</ele>
        <time>2013-02-09T10:06:15Z</time>
      </trkpt>
      <trkpt lat="45.46266" lon="5.93583">
        <ele>1623.32</ele>
        <time>2013-02-09T10:06:26Z</time>
      </trkpt>
      <trkpt lat="45.46272" lon="5.9358">
        <ele>1625.25</ele>
        <time>2013-02-09T10:06:38Z</time>
      </trkpt>
      <trkpt lat="45.46274" lon="5.93578">
        <ele>1626.21</ele>
        <time>2013-02-09T10:06:51Z</time>
      </trkpt>
      <trkpt lat="45.46273" lon="5.93577">
        <ele>1626.69</ele>
        <time>2013-02-09T10:06:52Z</time>
      </trkpt>
      <trkpt lat="45.46269" lon="5.93573">
        <ele>1627.65</ele>
        <time>2013-02-09T10:07:05Z</time>
      </trkpt>
      <trkpt lat="45.46262" lon="5.93568">
        <ele>1629.57</ele>
        <time>2013-02-09T10:07:15Z</time>
      </trkpt>
      <trkpt lat="45.46258" lon="5.93561">
        <ele>1630.53</ele>
        <time>2013-02-09T10:07:26Z</time>
      </trkpt>
      <trkpt lat="45.46255" lon="5.93556">
        <ele>1632.46</ele>
        <time>2013-02-09T10:07:37Z</time>
      </trkpt>
      <trkpt lat="45.46262" lon="5.93554">
        <ele>1634.38</ele>
        <time>2013-02-09T10:07:47Z</time>
      </trkpt>
      <trkpt lat="45.46267" lon="5.93555">
        <ele>1635.82</ele>
        <time>2013-02-09T10:07:59Z</time>
      </trkpt>
      <trkpt lat="45.46269" lon="5.93555">
        <ele>1637.26</ele>
        <time>2013-02-09T10:08:09Z</time>
      </trkpt>
      <trkpt lat="45.46265" lon="5.93549">
        <ele>1638.7</ele>
        <time>2013-02-09T10:08:21Z</time>
      </trkpt>
      <trkpt lat="45.46262" lon="5.93544">
        <ele>1640.15</ele>
        <time>2013-02-09T10:08:29Z</time>
      </trkpt>
      <trkpt lat="45.46257" lon="5.93535">
        <ele>1642.07</ele>
        <time>2013-02-09T10:08:40Z</time>
      </trkpt>
      <trkpt lat="45.46252" lon="5.93526">
        <ele>1643.99</ele>
        <time>2013-02-09T10:08:51Z</time>
      </trkpt>
      <trkpt lat="45.46248" lon="5.93517">
        <ele>1644.95</ele>
        <time>2013-02-09T10:09:03Z</time>
      </trkpt>
      <trkpt lat="45.46247" lon="5.93513">
        <ele>1645.91</ele>
        <time>2013-02-09T10:09:09Z</time>
      </trkpt>
      <trkpt lat="45.4624" lon="5.93502">
        <ele>1647.36</ele>
        <time>2013-02-09T10:09:23Z</time>
      </trkpt>
      <trkpt lat="45.46241" lon="5.93499">
        <ele>1648.32</ele>
        <time>2013-02-09T10:09:36Z</time>
      </trkpt>
      <trkpt lat="45.46243" lon="5.93498">
        <ele>1650.24</ele>
        <time>2013-02-09T10:09:48Z</time>
      </trkpt>
      <trkpt lat="45.46247" lon="5.935">
        <ele>1650.72</ele>
        <time>2013-02-09T10:10:00Z</time>
      </trkpt>
      <trkpt lat="45.46252" lon="5.935">
        <ele>1651.68</ele>
        <time>2013-02-09T10:10:11Z</time>
      </trkpt>
      <trkpt lat="45.46252" lon="5.93502">
        <ele>1651.68</ele>
        <time>2013-02-09T10:10:27Z</time>
      </trkpt>
      <trkpt lat="45.46249" lon="5.93495">
        <ele>1653.6</ele>
        <time>2013-02-09T10:10:46Z</time>
      </trkpt>
      <trkpt lat="45.46248" lon="5.93489">
        <ele>1655.53</ele>
        <time>2013-02-09T10:10:55Z</time>
      </trkpt>
      <trkpt lat="45.46244" lon="5.93475">
        <ele>1657.93</ele>
        <time>2013-02-09T10:11:10Z</time>
      </trkpt>
      <trkpt lat="45.46238" lon="5.93463">
        <ele>1659.85</ele>
        <time>2013-02-09T10:11:24Z</time>
      </trkpt>
      <trkpt lat="45.46235" lon="5.93454">
        <ele>1661.78</ele>
        <time>2013-02-09T10:11:36Z</time>
      </trkpt>
      <trkpt lat="45.4623" lon="5.93446">
        <ele>1663.7</ele>
        <time>2013-02-09T10:11:46Z</time>
      </trkpt>
      <trkpt lat="45.46223" lon="5.93434">
        <ele>1666.1</ele>
        <time>2013-02-09T10:12:01Z</time>
      </trkpt>
      <trkpt lat="45.46217" lon="5.93424">
        <ele>1668.51</ele>
        <time>2013-02-09T10:12:14Z</time>
      </trkpt>
      <trkpt lat="45.46216" lon="5.9342">
        <ele>1669.95</ele>
        <time>2013-02-09T10:12:24Z</time>
      </trkpt>
      <trkpt lat="45.46217" lon="5.93421">
        <ele>1669.95</ele>
        <time>2013-02-09T10:12:26Z</time>
      </trkpt>
      <trkpt lat="45.4622" lon="5.9342">
        <ele>1671.39</ele>
        <time>2013-02-09T10:12:39Z</time>
      </trkpt>
      <trkpt lat="45.46214" lon="5.93413">
        <ele>1673.31</ele>
        <time>2013-02-09T10:12:52Z</time>
      </trkpt>
      <trkpt lat="45.46208" lon="5.93407">
        <ele>1674.75</ele>
        <time>2013-02-09T10:13:02Z</time>
      </trkpt>
      <trkpt lat="45.46207" lon="5.93404">
        <ele>1674.75</ele>
        <time>2013-02-09T10:13:06Z</time>
      </trkpt>
      <trkpt lat="45.46201" lon="5.934">
        <ele>1676.2</ele>
        <time>2013-02-09T10:13:15Z</time>
      </trkpt>
      <trkpt lat="45.462" lon="5.93398">
        <ele>1676.68</ele>
        <time>2013-02-09T10:13:32Z</time>
      </trkpt>
      <trkpt lat="45.462" lon="5.93392">
        <ele>1678.12</ele>
        <time>2013-02-09T10:14:19Z</time>
      </trkpt>
      <trkpt lat="45.46201" lon="5.93391">
        <ele>1678.6</ele>
        <time>2013-02-09T10:14:21Z</time>
      </trkpt>
      <trkpt lat="45.46206" lon="5.93391">
        <ele>1680.04</ele>
        <time>2013-02-09T10:14:28Z</time>
      </trkpt>
      <trkpt lat="45.46213" lon="5.93393">
        <ele>1681.96</ele>
        <time>2013-02-09T10:14:41Z</time>
      </trkpt>
      <trkpt lat="45.46215" lon="5.93394">
        <ele>1682.93</ele>
        <time>2013-02-09T10:14:52Z</time>
      </trkpt>
      <trkpt lat="45.46211" lon="5.93385">
        <ele>1684.37</ele>
        <time>2013-02-09T10:15:04Z</time>
      </trkpt>
      <trkpt lat="45.46209" lon="5.9338">
        <ele>1685.33</ele>
        <time>2013-02-09T10:15:18Z</time>
      </trkpt>
      <trkpt lat="45.46205" lon="5.93371">
        <ele>1687.73</ele>
        <time>2013-02-09T10:15:32Z</time>
      </trkpt>
      <trkpt lat="45.46201" lon="5.93365">
        <ele>1688.21</ele>
        <time>2013-02-09T10:15:40Z</time>
      </trkpt>
      <trkpt lat="45.46193" lon="5.9336">
        <ele>1690.14</ele>
        <time>2013-02-09T10:15:52Z</time>
      </trkpt>
      <trkpt lat="45.46193" lon="5.93359">
        <ele>1691.1</ele>
        <time>2013-02-09T10:16:02Z</time>
      </trkpt>
      <trkpt lat="45.46201" lon="5.93356">
        <ele>1692.54</ele>
        <time>2013-02-09T10:16:14Z</time>
      </trkpt>
      <trkpt lat="45.46201" lon="5.93354">
        <ele>1693.98</ele>
        <time>2013-02-09T10:16:27Z</time>
      </trkpt>
      <trkpt lat="45.46193" lon="5.93347">
        <ele>1695.9</ele>
        <time>2013-02-09T10:16:41Z</time>
      </trkpt>
      <trkpt lat="45.46188" lon="5.93343">
        <ele>1697.83</ele>
        <time>2013-02-09T10:16:52Z</time>
      </trkpt>
      <trkpt lat="45.46194" lon="5.9334">
        <ele>1699.27</ele>
        <time>2013-02-09T10:17:03Z</time>
      </trkpt>
      <trkpt lat="45.46197" lon="5.93338">
        <ele>1700.71</ele>
        <time>2013-02-09T10:17:15Z</time>
      </trkpt>
      <trkpt lat="45.46192" lon="5.93332">
        <ele>1702.15</ele>
        <time>2013-02-09T10:17:25Z</time>
      </trkpt>
      <trkpt lat="45.46187" lon="5.93324">
        <ele>1704.07</ele>
        <time>2013-02-09T10:17:38Z</time>
      </trkpt>
      <trkpt lat="45.46182" lon="5.93317">
        <ele>1706.48</ele>
        <time>2013-02-09T10:17:50Z</time>
      </trkpt>
      <trkpt lat="45.46178" lon="5.93307">
        <ele>1707.92</ele>
        <time>2013-02-09T10:18:00Z</time>
      </trkpt>
      <trkpt lat="45.46176" lon="5.93298">
        <ele>1709.84</ele>
        <time>2013-02-09T10:18:13Z</time>
      </trkpt>
      <trkpt lat="45.46176" lon="5.93294">
        <ele>1711.76</ele>
        <time>2013-02-09T10:18:25Z</time>
      </trkpt>
      <trkpt lat="45.46176" lon="5.93285">
        <ele>1712.73</ele>
        <time>2013-02-09T10:19:06Z</time>
      </trkpt>
      <trkpt lat="45.46181" lon="5.93286">
        <ele>1714.65</ele>
        <time>2013-02-09T10:19:15Z</time>
      </trkpt>
      <trkpt lat="45.46184" lon="5.93286">
        <ele>1715.13</ele>
        <time>2013-02-09T10:19:19Z</time>
      </trkpt>
      <trkpt lat="45.46192" lon="5.9329">
        <ele>1717.05</ele>
        <time>2013-02-09T10:19:32Z</time>
      </trkpt>
      <trkpt lat="45.46199" lon="5.93294">
        <ele>1718.97</ele>
        <time>2013-02-09T10:19:44Z</time>
      </trkpt>
      <trkpt lat="45.46203" lon="5.93298">
        <ele>1719.94</ele>
        <time>2013-02-09T10:19:57Z</time>
      </trkpt>
      <trkpt lat="45.46204" lon="5.933">
        <ele>1721.38</ele>
        <time>2013-02-09T10:20:12Z</time>
      </trkpt>
      <trkpt lat="45.46204" lon="5.933">
        <ele>1721.38</ele>
        <time>2013-02-09T10:20:25Z</time>
      </trkpt>
      <trkpt lat="45.46204" lon="5.93298">
        <ele>1722.34</ele>
        <time>2013-02-09T10:20:37Z</time>
      </trkpt>
      <trkpt lat="45.46206" lon="5.93299">
        <ele>1723.3</ele>
        <time>2013-02-09T10:20:50Z</time>
      </trkpt>
      <trkpt lat="45.46209" lon="5.93302">
        <ele>1724.26</ele>
        <time>2013-02-09T10:21:01Z</time>
      </trkpt>
      <trkpt lat="45.46213" lon="5.93311">
        <ele>1725.22</ele>
        <time>2013-02-09T10:21:14Z</time>
      </trkpt>
      <trkpt lat="45.46215" lon="5.93314">
        <ele>1725.7</ele>
        <time>2013-02-09T10:21:20Z</time>
      </trkpt>
      <trkpt lat="45.46216" lon="5.93317">
        <ele>1727.15</ele>
        <time>2013-02-09T10:21:31Z</time>
      </trkpt>
      <trkpt lat="45.46215" lon="5.93308">
        <ele>1728.11</ele>
        <time>2013-02-09T10:21:44Z</time>
      </trkpt>
      <trkpt lat="45.46215" lon="5.93306">
        <ele>1729.55</ele>
        <time>2013-02-09T10:21:56Z</time>
      </trkpt>
      <trkpt lat="45.46219" lon="5.93311">
        <ele>1730.51</ele>
        <time>2013-02-09T10:22:11Z</time>
      </trkpt>
      <trkpt lat="45.46224" lon="5.93315">
        <ele>1732.43</ele>
        <time>2013-02-09T10:22:23Z</time>
      </trkpt>
      <trkpt lat="45.46228" lon="5.93321">
        <ele>1732.91</ele>
        <time>2013-02-09T10:22:33Z</time>
      </trkpt>
      <trkpt lat="45.46234" lon="5.93325">
        <ele>1734.84</ele>
        <time>2013-02-09T10:22:46Z</time>
      </trkpt>
      <trkpt lat="45.46233" lon="5.9332">
        <ele>1735.8</ele>
        <time>2013-02-09T10:22:58Z</time>
      </trkpt>
      <trkpt lat="45.46231" lon="5.93311">
        <ele>1737.72</ele>
        <time>2013-02-09T10:23:10Z</time>
      </trkpt>
      <trkpt lat="45.46228" lon="5.93303">
        <ele>1739.16</ele>
        <time>2013-02-09T10:23:22Z</time>
      </trkpt>
      <trkpt lat="45.46224" lon="5.93294">
        <ele>1740.6</ele>
        <time>2013-02-09T10:23:35Z</time>
      </trkpt>
      <trkpt lat="45.46226" lon="5.93292">
        <ele>1741.57</ele>
        <time>2013-02-09T10:23:47Z</time>
      </trkpt>
      <trkpt lat="45.4623" lon="5.93295">
        <ele>1743.01</ele>
        <time>2013-02-09T10:24:00Z</time>
      </trkpt>
      <trkpt lat="45.46235" lon="5.93297">
        <ele>1743.97</ele>
        <time>2013-02-09T10:24:08Z</time>
      </trkpt>
      <trkpt lat="45.46241" lon="5.93304">
        <ele>1745.89</ele>
        <time>2013-02-09T10:24:22Z</time>
      </trkpt>
      <trkpt lat="45.46247" lon="5.93308">
        <ele>1747.33</ele>
        <time>2013-02-09T10:24:33Z</time>
      </trkpt>
      <trkpt lat="45.46247" lon="5.93304">
        <ele>1748.78</ele>
        <time>2013-02-09T10:24:46Z</time>
      </trkpt>
      <trkpt lat="45.46243" lon="5.93295">
        <ele>1750.22</ele>
        <time>2013-02-09T10:24:57Z</time>
      </trkpt>
      <trkpt lat="45.46242" lon="5.93287">
        <ele>1752.14</ele>
        <time>2013-02-09T10:25:08Z</time>
      </trkpt>
      <trkpt lat="45.46243" lon="5.93286">
        <ele>1753.1</ele>
        <time>2013-02-09T10:25:32Z</time>
      </trkpt>
      <trkpt lat="45.4624" lon="5.93276">
        <ele>1755.02</ele>
        <time>2013-02-09T10:25:43Z</time>
      </trkpt>
      <trkpt lat="45.46236" lon="5.93265">
        <ele>1756.95</ele>
        <time>2013-02-09T10:25:55Z</time>
      </trkpt>
      <trkpt lat="45.46232" lon="5.93253">
        <ele>1759.35</ele>
        <time>2013-02-09T10:26:07Z</time>
      </trkpt>
      <trkpt lat="45.4623" lon="5.93239">
        <ele>1761.75</ele>
        <time>2013-02-09T10:26:19Z</time>
      </trkpt>
      <trkpt lat="45.46229" lon="5.93234">
        <ele>1762.71</ele>
        <time>2013-02-09T10:26:24Z</time>
      </trkpt>
      <trkpt lat="45.46233" lon="5.93232">
        <ele>1764.16</ele>
        <time>2013-02-09T10:26:31Z</time>
      </trkpt>
      <trkpt lat="45.46239" lon="5.9323">
        <ele>1766.08</ele>
        <time>2013-02-09T10:26:44Z</time>
      </trkpt>
      <trkpt lat="45.46245" lon="5.93225">
        <ele>1768.96</ele>
        <time>2013-02-09T10:26:56Z</time>
      </trkpt>
      <trkpt lat="45.46247" lon="5.93218">
        <ele>1769.44</ele>
        <time>2013-02-09T10:27:05Z</time>
      </trkpt>
      <trkpt lat="45.46249" lon="5.93204">
        <ele>1770.89</ele>
        <time>2013-02-09T10:27:18Z</time>
      </trkpt>
      <trkpt lat="45.46248" lon="5.93192">
        <ele>1772.33</ele>
        <time>2013-02-09T10:27:30Z</time>
      </trkpt>
      <trkpt lat="45.46252" lon="5.93182">
        <ele>1773.29</ele>
        <time>2013-02-09T10:27:40Z</time>
      </trkpt>
      <trkpt lat="45.46255" lon="5.93167">
        <ele>1776.17</ele>
        <time>2013-02-09T10:27:56Z</time>
      </trkpt>
      <trkpt lat="45.46258" lon="5.93155">
        <ele>1778.1</ele>
        <time>2013-02-09T10:28:08Z</time>
      </trkpt>
      <trkpt lat="45.46257" lon="5.93145">
        <ele>1779.06</ele>
        <time>2013-02-09T10:28:17Z</time>
      </trkpt>
      <trkpt lat="45.46261" lon="5.93132">
        <ele>1780.98</ele>
        <time>2013-02-09T10:28:30Z</time>
      </trkpt>
      <trkpt lat="45.46258" lon="5.93128">
        <ele>1782.42</ele>
        <time>2013-02-09T10:28:42Z</time>
      </trkpt>
      <trkpt lat="45.46263" lon="5.93124">
        <ele>1783.38</ele>
        <time>2013-02-09T10:28:54Z</time>
      </trkpt>
      <trkpt lat="45.46265" lon="5.93123">
        <ele>1783.86</ele>
        <time>2013-02-09T10:28:58Z</time>
      </trkpt>
      <trkpt lat="45.46266" lon="5.93122">
        <ele>1784.82</ele>
        <time>2013-02-09T10:29:09Z</time>
      </trkpt>
      <trkpt lat="45.46261" lon="5.93119">
        <ele>1785.79</ele>
        <time>2013-02-09T10:29:33Z</time>
      </trkpt>
      <trkpt lat="45.46255" lon="5.9312">
        <ele>1787.23</ele>
        <time>2013-02-09T10:29:45Z</time>
      </trkpt>
      <trkpt lat="45.46254" lon="5.93118">
        <ele>1787.71</ele>
        <time>2013-02-09T10:29:49Z</time>
      </trkpt>
      <trkpt lat="45.46255" lon="5.93116">
        <ele>1787.71</ele>
        <time>2013-02-09T10:30:07Z</time>
      </trkpt>
      <trkpt lat="45.46255" lon="5.93115">
        <ele>1787.71</ele>
        <time>2013-02-09T10:30:16Z</time>
      </trkpt>
      <trkpt lat="45.46257" lon="5.93109">
        <ele>1788.67</ele>
        <time>2013-02-09T10:30:25Z</time>
      </trkpt>
      <trkpt lat="45.4626" lon="5.93102">
        <ele>1791.07</ele>
        <time>2013-02-09T10:30:37Z</time>
      </trkpt>
      <trkpt lat="45.46263" lon="5.93096">
        <ele>1793</ele>
        <time>2013-02-09T10:30:47Z</time>
      </trkpt>
      <trkpt lat="45.46263" lon="5.93093">
        <ele>1793.96</ele>
        <time>2013-02-09T10:30:51Z</time>
      </trkpt>
      <trkpt lat="45.46264" lon="5.93083">
        <ele>1793</ele>
        <time>2013-02-09T10:30:58Z</time>
      </trkpt>
      <trkpt lat="45.46267" lon="5.93078">
        <ele>1793.96</ele>
        <time>2013-02-09T10:31:04Z</time>
      </trkpt>
      <trkpt lat="45.46273" lon="5.93071">
        <ele>1795.4</ele>
        <time>2013-02-09T10:31:14Z</time>
      </trkpt>
      <trkpt lat="45.4628" lon="5.93058">
        <ele>1796.36</ele>
        <time>2013-02-09T10:31:30Z</time>
      </trkpt>
      <trkpt lat="45.4628" lon="5.93058">
        <ele>1796.36</ele>
        <time>2013-02-09T10:31:43Z</time>
      </trkpt>
      <trkpt lat="45.46284" lon="5.93051">
        <ele>1797.8</ele>
        <time>2013-02-09T10:31:55Z</time>
      </trkpt>
      <trkpt lat="45.46282" lon="5.93045">
        <ele>1799.24</ele>
        <time>2013-02-09T10:32:05Z</time>
      </trkpt>
      <trkpt lat="45.46287" lon="5.93031">
        <ele>1801.65</ele>
        <time>2013-02-09T10:32:20Z</time>
      </trkpt>
      <trkpt lat="45.4629" lon="5.93019">
        <ele>1804.05</ele>
        <time>2013-02-09T10:32:33Z</time>
      </trkpt>
      <trkpt lat="45.46292" lon="5.93016">
        <ele>1804.53</ele>
        <time>2013-02-09T10:32:37Z</time>
      </trkpt>
      <trkpt lat="45.46295" lon="5.93013">
        <ele>1805.49</ele>
        <time>2013-02-09T10:32:42Z</time>
      </trkpt>
      <trkpt lat="45.46309" lon="5.93007">
        <ele>1805.97</ele>
        <time>2013-02-09T10:32:58Z</time>
      </trkpt>
      <trkpt lat="45.46314" lon="5.93006">
        <ele>1805.97</ele>
        <time>2013-02-09T10:33:08Z</time>
      </trkpt>
      <trkpt lat="45.46321" lon="5.93">
        <ele>1804.05</ele>
        <time>2013-02-09T10:33:17Z</time>
      </trkpt>
      <trkpt lat="45.46328" lon="5.92995">
        <ele>1805.01</ele>
        <time>2013-02-09T10:33:27Z</time>
      </trkpt>
      <trkpt lat="45.46335" lon="5.92988">
        <ele>1806.45</ele>
        <time>2013-02-09T10:33:37Z</time>
      </trkpt>
      <trkpt lat="45.46344" lon="5.92978">
        <ele>1809.82</ele>
        <time>2013-02-09T10:33:53Z</time>
      </trkpt>
      <trkpt lat="45.46349" lon="5.92973">
        <ele>1811.26</ele>
        <time>2013-02-09T10:34:04Z</time>
      </trkpt>
      <trkpt lat="45.46348" lon="5.92971">
        <ele>1811.74</ele>
        <time>2013-02-09T10:34:09Z</time>
      </trkpt>
      <trkpt lat="45.46344" lon="5.92959">
        <ele>1814.63</ele>
        <time>2013-02-09T10:34:23Z</time>
      </trkpt>
      <trkpt lat="45.46339" lon="5.92946">
        <ele>1816.55</ele>
        <time>2013-02-09T10:34:35Z</time>
      </trkpt>
      <trkpt lat="45.46339" lon="5.92943">
        <ele>1817.03</ele>
        <time>2013-02-09T10:34:38Z</time>
      </trkpt>
      <trkpt lat="45.46341" lon="5.92927">
        <ele>1818.95</ele>
        <time>2013-02-09T10:34:51Z</time>
      </trkpt>
      <trkpt lat="45.46342" lon="5.92918">
        <ele>1820.87</ele>
        <time>2013-02-09T10:35:01Z</time>
      </trkpt>
      <trkpt lat="45.46346" lon="5.92902">
        <ele>1822.8</ele>
        <time>2013-02-09T10:35:15Z</time>
      </trkpt>
      <trkpt lat="45.4635" lon="5.92901">
        <ele>1824.72</ele>
        <time>2013-02-09T10:35:27Z</time>
      </trkpt>
      <trkpt lat="45.46356" lon="5.92901">
        <ele>1827.12</ele>
        <time>2013-02-09T10:35:40Z</time>
      </trkpt>
      <trkpt lat="45.46355" lon="5.92898">
        <ele>1828.08</ele>
        <time>2013-02-09T10:35:55Z</time>
      </trkpt>
      <trkpt lat="45.46354" lon="5.92894">
        <ele>1829.05</ele>
        <time>2013-02-09T10:36:00Z</time>
      </trkpt>
      <trkpt lat="45.46358" lon="5.92893">
        <ele>1830.01</ele>
        <time>2013-02-09T10:36:12Z</time>
      </trkpt>
      <trkpt lat="45.46367" lon="5.92894">
        <ele>1831.93</ele>
        <time>2013-02-09T10:36:25Z</time>
      </trkpt>
      <trkpt lat="45.4637" lon="5.92893">
        <ele>1832.41</ele>
        <time>2013-02-09T10:36:29Z</time>
      </trkpt>
      <trkpt lat="45.46375" lon="5.9289">
        <ele>1834.33</ele>
        <time>2013-02-09T10:36:44Z</time>
      </trkpt>
      <trkpt lat="45.46371" lon="5.92887">
        <ele>1835.77</ele>
        <time>2013-02-09T10:36:55Z</time>
      </trkpt>
      <trkpt lat="45.46373" lon="5.92882">
        <ele>1837.22</ele>
        <time>2013-02-09T10:37:06Z</time>
      </trkpt>
      <trkpt lat="45.46372" lon="5.92879">
        <ele>1837.7</ele>
        <time>2013-02-09T10:37:11Z</time>
      </trkpt>
      <trkpt lat="45.46368" lon="5.92867">
        <ele>1838.18</ele>
        <time>2013-02-09T10:37:21Z</time>
      </trkpt>
      <trkpt lat="45.46363" lon="5.92858">
        <ele>1840.58</ele>
        <time>2013-02-09T10:37:35Z</time>
      </trkpt>
      <trkpt lat="45.46367" lon="5.92851">
        <ele>1842.5</ele>
        <time>2013-02-09T10:37:46Z</time>
      </trkpt>
      <trkpt lat="45.46369" lon="5.92847">
        <ele>1843.47</ele>
        <time>2013-02-09T10:37:51Z</time>
      </trkpt>
      <trkpt lat="45.46375" lon="5.92839">
        <ele>1844.91</ele>
        <time>2013-02-09T10:38:02Z</time>
      </trkpt>
      <trkpt lat="45.46379" lon="5.92832">
        <ele>1846.35</ele>
        <time>2013-02-09T10:38:17Z</time>
      </trkpt>
      <trkpt lat="45.46383" lon="5.92822">
        <ele>1848.27</ele>
        <time>2013-02-09T10:38:29Z</time>
      </trkpt>
      <trkpt lat="45.46386" lon="5.92811">
        <ele>1850.19</ele>
        <time>2013-02-09T10:38:41Z</time>
      </trkpt>
      <trkpt lat="45.46392" lon="5.92804">
        <ele>1852.12</ele>
        <time>2013-02-09T10:38:52Z</time>
      </trkpt>
      <trkpt lat="45.46396" lon="5.92799">
        <ele>1853.56</ele>
        <time>2013-02-09T10:39:15Z</time>
      </trkpt>
      <trkpt lat="45.46397" lon="5.92798">
        <ele>1854.04</ele>
        <time>2013-02-09T10:39:29Z</time>
      </trkpt>
      <trkpt lat="45.46397" lon="5.92797">
        <ele>1854.04</ele>
        <time>2013-02-09T10:39:52Z</time>
      </trkpt>
      <trkpt lat="45.46397" lon="5.92798">
        <ele>1853.56</ele>
        <time>2013-02-09T10:40:50Z</time>
      </trkpt>
      <trkpt lat="45.46397" lon="5.92798">
        <ele>1853.08</ele>
        <time>2013-02-09T10:41:29Z</time>
      </trkpt>
      <trkpt lat="45.46401" lon="5.92792">
        <ele>1854.04</ele>
        <time>2013-02-09T10:41:44Z</time>
      </trkpt>
      <trkpt lat="45.46406" lon="5.92782">
        <ele>1856.44</ele>
        <time>2013-02-09T10:41:56Z</time>
      </trkpt>
      <trkpt lat="45.46416" lon="5.92767">
        <ele>1858.37</ele>
        <time>2013-02-09T10:42:11Z</time>
      </trkpt>
      <trkpt lat="45.4642" lon="5.92761">
        <ele>1858.37</ele>
        <time>2013-02-09T10:42:18Z</time>
      </trkpt>
      <trkpt lat="45.4643" lon="5.92754">
        <ele>1860.77</ele>
        <time>2013-02-09T10:42:32Z</time>
      </trkpt>
      <trkpt lat="45.46438" lon="5.92749">
        <ele>1863.17</ele>
        <time>2013-02-09T10:42:45Z</time>
      </trkpt>
      <trkpt lat="45.46447" lon="5.92744">
        <ele>1865.09</ele>
        <time>2013-02-09T10:42:59Z</time>
      </trkpt>
      <trkpt lat="45.46455" lon="5.92739">
        <ele>1867.02</ele>
        <time>2013-02-09T10:43:11Z</time>
      </trkpt>
      <trkpt lat="45.46461" lon="5.92733">
        <ele>1869.42</ele>
        <time>2013-02-09T10:43:24Z</time>
      </trkpt>
      <trkpt lat="45.46468" lon="5.92727">
        <ele>1871.34</ele>
        <time>2013-02-09T10:43:36Z</time>
      </trkpt>
      <trkpt lat="45.46475" lon="5.9272">
        <ele>1872.79</ele>
        <time>2013-02-09T10:43:50Z</time>
      </trkpt>
      <trkpt lat="45.46483" lon="5.92713">
        <ele>1875.19</ele>
        <time>2013-02-09T10:44:03Z</time>
      </trkpt>
      <trkpt lat="45.4649" lon="5.92707">
        <ele>1877.59</ele>
        <time>2013-02-09T10:44:16Z</time>
      </trkpt>
      <trkpt lat="45.46496" lon="5.92702">
        <ele>1878.55</ele>
        <time>2013-02-09T10:44:28Z</time>
      </trkpt>
      <trkpt lat="45.465" lon="5.927">
        <ele>1879.51</ele>
        <time>2013-02-09T10:44:40Z</time>
      </trkpt>
      <trkpt lat="45.465" lon="5.92699">
        <ele>1880</ele>
        <time>2013-02-09T10:45:06Z</time>
      </trkpt>
      <trkpt lat="45.46496" lon="5.92697">
        <ele>1880.48</ele>
        <time>2013-02-09T10:45:28Z</time>
      </trkpt>
      <trkpt lat="45.46487" lon="5.92689">
        <ele>1882.88</ele>
        <time>2013-02-09T10:45:42Z</time>
      </trkpt>
      <trkpt lat="45.4648" lon="5.92679">
        <ele>1884.8</ele>
        <time>2013-02-09T10:45:56Z</time>
      </trkpt>
      <trkpt lat="45.46474" lon="5.9267">
        <ele>1887.21</ele>
        <time>2013-02-09T10:46:09Z</time>
      </trkpt>
      <trkpt lat="45.46468" lon="5.92665">
        <ele>1889.13</ele>
        <time>2013-02-09T10:46:20Z</time>
      </trkpt>
      <trkpt lat="45.46461" lon="5.92658">
        <ele>1891.53</ele>
        <time>2013-02-09T10:46:31Z</time>
      </trkpt>
      <trkpt lat="45.46455" lon="5.92654">
        <ele>1893.93</ele>
        <time>2013-02-09T10:46:42Z</time>
      </trkpt>
      <trkpt lat="45.46448" lon="5.92648">
        <ele>1895.38</ele>
        <time>2013-02-09T10:46:53Z</time>
      </trkpt>
      <trkpt lat="45.4644" lon="5.92641">
        <ele>1897.3</ele>
        <time>2013-02-09T10:47:05Z</time>
      </trkpt>
      <trkpt lat="45.46432" lon="5.92635">
        <ele>1899.7</ele>
        <time>2013-02-09T10:47:18Z</time>
      </trkpt>
      <trkpt lat="45.46426" lon="5.9263">
        <ele>1901.63</ele>
        <time>2013-02-09T10:47:29Z</time>
      </trkpt>
      <trkpt lat="45.46418" lon="5.92624">
        <ele>1903.07</ele>
        <time>2013-02-09T10:47:41Z</time>
      </trkpt>
      <trkpt lat="45.46411" lon="5.92618">
        <ele>1905.47</ele>
        <time>2013-02-09T10:47:54Z</time>
      </trkpt>
      <trkpt lat="45.46405" lon="5.9261">
        <ele>1907.87</ele>
        <time>2013-02-09T10:48:06Z</time>
      </trkpt>
      <trkpt lat="45.464" lon="5.926">
        <ele>1910.28</ele>
        <time>2013-02-09T10:48:18Z</time>
      </trkpt>
      <trkpt lat="45.46397" lon="5.92591">
        <ele>1912.2</ele>
        <time>2013-02-09T10:48:30Z</time>
      </trkpt>
      <trkpt lat="45.46394" lon="5.92582">
        <ele>1913.64</ele>
        <time>2013-02-09T10:48:41Z</time>
      </trkpt>
      <trkpt lat="45.46392" lon="5.92576">
        <ele>1915.56</ele>
        <time>2013-02-09T10:48:52Z</time>
      </trkpt>
      <trkpt lat="45.46398" lon="5.92575">
        <ele>1916.53</ele>
        <time>2013-02-09T10:49:04Z</time>
      </trkpt>
      <trkpt lat="45.46405" lon="5.92575">
        <ele>1919.41</ele>
        <time>2013-02-09T10:49:17Z</time>
      </trkpt>
      <trkpt lat="45.46414" lon="5.9257">
        <ele>1921.33</ele>
        <time>2013-02-09T10:49:31Z</time>
      </trkpt>
      <trkpt lat="45.46419" lon="5.92563">
        <ele>1923.25</ele>
        <time>2013-02-09T10:49:42Z</time>
      </trkpt>
      <trkpt lat="45.46424" lon="5.92556">
        <ele>1926.62</ele>
        <time>2013-02-09T10:49:54Z</time>
      </trkpt>
      <trkpt lat="45.46431" lon="5.9255">
        <ele>1929.98</ele>
        <time>2013-02-09T10:50:09Z</time>
      </trkpt>
      <trkpt lat="45.46437" lon="5.92545">
        <ele>1931.91</ele>
        <time>2013-02-09T10:50:22Z</time>
      </trkpt>
      <trkpt lat="45.46441" lon="5.92542">
        <ele>1932.87</ele>
        <time>2013-02-09T10:50:37Z</time>
      </trkpt>
      <trkpt lat="45.46447" lon="5.92535">
        <ele>1936.23</ele>
        <time>2013-02-09T10:50:50Z</time>
      </trkpt>
      <trkpt lat="45.46454" lon="5.92526">
        <ele>1938.16</ele>
        <time>2013-02-09T10:51:04Z</time>
      </trkpt>
      <trkpt lat="45.46462" lon="5.92515">
        <ele>1938.64</ele>
        <time>2013-02-09T10:51:18Z</time>
      </trkpt>
      <trkpt lat="45.46465" lon="5.92508">
        <ele>1940.08</ele>
        <time>2013-02-09T10:51:30Z</time>
      </trkpt>
      <trkpt lat="45.46466" lon="5.92507">
        <ele>1940.56</ele>
        <time>2013-02-09T10:51:46Z</time>
      </trkpt>
      <trkpt lat="45.46466" lon="5.92507">
        <ele>1941.52</ele>
        <time>2013-02-09T10:52:03Z</time>
      </trkpt>
      <trkpt lat="45.46466" lon="5.92508">
        <ele>1939.6</ele>
        <time>2013-02-09T10:52:45Z</time>
      </trkpt>
      <trkpt lat="45.46466" lon="5.92507">
        <ele>1939.6</ele>
        <time>2013-02-09T10:53:25Z</time>
      </trkpt>
      <trkpt lat="45.46467" lon="5.92509">
        <ele>1938.16</ele>
        <time>2013-02-09T10:53:39Z</time>
      </trkpt>
      <trkpt lat="45.46467" lon="5.92512">
        <ele>1938.64</ele>
        <time>2013-02-09T10:53:50Z</time>
      </trkpt>
      <trkpt lat="45.46465" lon="5.92509">
        <ele>1939.12</ele>
        <time>2013-02-09T10:54:08Z</time>
      </trkpt>
      <trkpt lat="45.46465" lon="5.92508">
        <ele>1938.64</ele>
        <time>2013-02-09T10:54:44Z</time>
      </trkpt>
      <trkpt lat="45.46465" lon="5.92506">
        <ele>1937.67</ele>
        <time>2013-02-09T10:55:03Z</time>
      </trkpt>
      <trkpt lat="45.46465" lon="5.92506">
        <ele>1937.19</ele>
        <time>2013-02-09T10:55:22Z</time>
      </trkpt>
      <trkpt lat="45.46465" lon="5.92505">
        <ele>1937.19</ele>
        <time>2013-02-09T10:55:36Z</time>
      </trkpt>
      <trkpt lat="45.46465" lon="5.92505">
        <ele>1937.67</ele>
        <time>2013-02-09T10:56:06Z</time>
      </trkpt>
      <trkpt lat="45.46465" lon="5.92504">
        <ele>1937.19</ele>
        <time>2013-02-09T10:56:38Z</time>
      </trkpt>
      <trkpt lat="45.46465" lon="5.92505">
        <ele>1936.71</ele>
        <time>2013-02-09T10:56:58Z</time>
      </trkpt>
      <trkpt lat="45.46465" lon="5.92504">
        <ele>1936.71</ele>
        <time>2013-02-09T10:58:19Z</time>
      </trkpt>
      <trkpt lat="45.46465" lon="5.92505">
        <ele>1937.19</ele>
        <time>2013-02-09T10:59:44Z</time>
      </trkpt>
      <trkpt lat="45.46465" lon="5.92506">
        <ele>1937.19</ele>
        <time>2013-02-09T10:59:56Z</time>
      </trkpt>
      <trkpt lat="45.46465" lon="5.92506">
        <ele>1937.19</ele>
        <time>2013-02-09T11:00:19Z</time>
      </trkpt>
      <trkpt lat="45.46465" lon="5.92506">
        <ele>1937.19</ele>
        <time>2013-02-09T11:01:05Z</time>
      </trkpt>
      <trkpt lat="45.46465" lon="5.92506">
        <ele>1937.67</ele>
        <time>2013-02-09T11:01:28Z</time>
      </trkpt>
      <trkpt lat="45.46466" lon="5.92506">
        <ele>1936.71</ele>
        <time>2013-02-09T11:02:01Z</time>
      </trkpt>
      <trkpt lat="45.46466" lon="5.92509">
        <ele>1936.71</ele>
        <time>2013-02-09T11:02:16Z</time>
      </trkpt>
      <trkpt lat="45.46456" lon="5.92538">
        <ele>1934.31</ele>
        <time>2013-02-09T11:02:25Z</time>
      </trkpt>
      <trkpt lat="45.46453" lon="5.9256">
        <ele>1930.46</ele>
        <time>2013-02-09T11:02:29Z</time>
      </trkpt>
      <trkpt lat="45.46452" lon="5.92566">
        <ele>1930.46</ele>
        <time>2013-02-09T11:02:30Z</time>
      </trkpt>
      <trkpt lat="45.46452" lon="5.92573">
        <ele>1928.54</ele>
        <time>2013-02-09T11:02:31Z</time>
      </trkpt>
      <trkpt lat="45.46449" lon="5.92587">
        <ele>1923.25</ele>
        <time>2013-02-09T11:02:33Z</time>
      </trkpt>
      <trkpt lat="45.46448" lon="5.92608">
        <ele>1916.04</ele>
        <time>2013-02-09T11:02:36Z</time>
      </trkpt>
      <trkpt lat="45.46448" lon="5.92621">
        <ele>1910.76</ele>
        <time>2013-02-09T11:02:38Z</time>
      </trkpt>
      <trkpt lat="45.46448" lon="5.92635">
        <ele>1908.35</ele>
        <time>2013-02-09T11:02:40Z</time>
      </trkpt>
      <trkpt lat="45.46448" lon="5.92639">
        <ele>1904.99</ele>
        <time>2013-02-09T11:02:41Z</time>
      </trkpt>
      <trkpt lat="45.46447" lon="5.92641">
        <ele>1900.18</ele>
        <time>2013-02-09T11:02:43Z</time>
      </trkpt>
      <trkpt lat="45.46446" lon="5.92641">
        <ele>1897.3</ele>
        <time>2013-02-09T11:02:46Z</time>
      </trkpt>
      <trkpt lat="45.46446" lon="5.92644">
        <ele>1896.82</ele>
        <time>2013-02-09T11:03:23Z</time>
      </trkpt>
      <trkpt lat="45.46458" lon="5.92655">
        <ele>1893.93</ele>
        <time>2013-02-09T11:03:29Z</time>
      </trkpt>
      <trkpt lat="45.46474" lon="5.92665">
        <ele>1890.09</ele>
        <time>2013-02-09T11:03:34Z</time>
      </trkpt>
      <trkpt lat="45.46488" lon="5.92677">
        <ele>1886.72</ele>
        <time>2013-02-09T11:03:38Z</time>
      </trkpt>
      <trkpt lat="45.46492" lon="5.9268">
        <ele>1886.72</ele>
        <time>2013-02-09T11:03:39Z</time>
      </trkpt>
      <trkpt lat="45.46504" lon="5.9269">
        <ele>1883.84</ele>
        <time>2013-02-09T11:03:43Z</time>
      </trkpt>
      <trkpt lat="45.4651" lon="5.92696">
        <ele>1882.4</ele>
        <time>2013-02-09T11:03:45Z</time>
      </trkpt>
      <trkpt lat="45.46526" lon="5.9271">
        <ele>1880</ele>
        <time>2013-02-09T11:03:49Z</time>
      </trkpt>
      <trkpt lat="45.46537" lon="5.9272">
        <ele>1876.63</ele>
        <time>2013-02-09T11:03:52Z</time>
      </trkpt>
      <trkpt lat="45.46548" lon="5.92731">
        <ele>1874.71</ele>
        <time>2013-02-09T11:03:56Z</time>
      </trkpt>
      <trkpt lat="45.46563" lon="5.92747">
        <ele>1872.3</ele>
        <time>2013-02-09T11:04:01Z</time>
      </trkpt>
      <trkpt lat="45.46566" lon="5.92774">
        <ele>1868.46</ele>
        <time>2013-02-09T11:04:06Z</time>
      </trkpt>
      <trkpt lat="45.46568" lon="5.92792">
        <ele>1863.65</ele>
        <time>2013-02-09T11:04:09Z</time>
      </trkpt>
      <trkpt lat="45.46567" lon="5.928">
        <ele>1862.21</ele>
        <time>2013-02-09T11:04:11Z</time>
      </trkpt>
      <trkpt lat="45.46566" lon="5.92802">
        <ele>1859.81</ele>
        <time>2013-02-09T11:04:20Z</time>
      </trkpt>
      <trkpt lat="45.46566" lon="5.92813">
        <ele>1858.85</ele>
        <time>2013-02-09T11:04:35Z</time>
      </trkpt>
      <trkpt lat="45.46565" lon="5.92841">
        <ele>1855</ele>
        <time>2013-02-09T11:04:39Z</time>
      </trkpt>
      <trkpt lat="45.46564" lon="5.92849">
        <ele>1855</ele>
        <time>2013-02-09T11:04:40Z</time>
      </trkpt>
      <trkpt lat="45.46562" lon="5.92867">
        <ele>1851.64</ele>
        <time>2013-02-09T11:04:42Z</time>
      </trkpt>
      <trkpt lat="45.46563" lon="5.92891">
        <ele>1846.35</ele>
        <time>2013-02-09T11:04:45Z</time>
      </trkpt>
      <trkpt lat="45.46563" lon="5.92906">
        <ele>1843.47</ele>
        <time>2013-02-09T11:04:47Z</time>
      </trkpt>
      <trkpt lat="45.46563" lon="5.9292">
        <ele>1839.14</ele>
        <time>2013-02-09T11:04:49Z</time>
      </trkpt>
      <trkpt lat="45.46563" lon="5.92927">
        <ele>1839.14</ele>
        <time>2013-02-09T11:04:50Z</time>
      </trkpt>
      <trkpt lat="45.46564" lon="5.92937">
        <ele>1835.77</ele>
        <time>2013-02-09T11:04:52Z</time>
      </trkpt>
      <trkpt lat="45.46567" lon="5.92939">
        <ele>1831.93</ele>
        <time>2013-02-09T11:04:55Z</time>
      </trkpt>
      <trkpt lat="45.46581" lon="5.92963">
        <ele>1829.05</ele>
        <time>2013-02-09T11:05:04Z</time>
      </trkpt>
      <trkpt lat="45.46589" lon="5.92985">
        <ele>1825.2</ele>
        <time>2013-02-09T11:05:09Z</time>
      </trkpt>
      <trkpt lat="45.4659" lon="5.92988">
        <ele>1825.2</ele>
        <time>2013-02-09T11:05:10Z</time>
      </trkpt>
      <trkpt lat="45.46589" lon="5.92998">
        <ele>1824.24</ele>
        <time>2013-02-09T11:05:21Z</time>
      </trkpt>
      <trkpt lat="45.46591" lon="5.93024">
        <ele>1821.84</ele>
        <time>2013-02-09T11:05:33Z</time>
      </trkpt>
      <trkpt lat="45.46591" lon="5.93033">
        <ele>1820.87</ele>
        <time>2013-02-09T11:05:35Z</time>
      </trkpt>
      <trkpt lat="45.46589" lon="5.93058">
        <ele>1815.59</ele>
        <time>2013-02-09T11:05:39Z</time>
      </trkpt>
      <trkpt lat="45.46587" lon="5.93061">
        <ele>1814.15</ele>
        <time>2013-02-09T11:05:41Z</time>
      </trkpt>
      <trkpt lat="45.46585" lon="5.93063">
        <ele>1811.74</ele>
        <time>2013-02-09T11:05:59Z</time>
      </trkpt>
      <trkpt lat="45.46578" lon="5.93062">
        <ele>1811.26</ele>
        <time>2013-02-09T11:06:09Z</time>
      </trkpt>
      <trkpt lat="45.46574" lon="5.93063">
        <ele>1811.26</ele>
        <time>2013-02-09T11:06:15Z</time>
      </trkpt>
      <trkpt lat="45.46565" lon="5.93068">
        <ele>1810.3</ele>
        <time>2013-02-09T11:06:27Z</time>
      </trkpt>
      <trkpt lat="45.46563" lon="5.93069">
        <ele>1810.3</ele>
        <time>2013-02-09T11:06:32Z</time>
      </trkpt>
      <trkpt lat="45.46541" lon="5.93079">
        <ele>1806.94</ele>
        <time>2013-02-09T11:06:40Z</time>
      </trkpt>
      <trkpt lat="45.46539" lon="5.9308">
        <ele>1806.94</ele>
        <time>2013-02-09T11:06:41Z</time>
      </trkpt>
      <trkpt lat="45.46533" lon="5.93081">
        <ele>1805.49</ele>
        <time>2013-02-09T11:06:53Z</time>
      </trkpt>
      <trkpt lat="45.46532" lon="5.93081">
        <ele>1805.49</ele>
        <time>2013-02-09T11:06:55Z</time>
      </trkpt>
      <trkpt lat="45.46513" lon="5.93097">
        <ele>1803.09</ele>
        <time>2013-02-09T11:07:01Z</time>
      </trkpt>
      <trkpt lat="45.46508" lon="5.93106">
        <ele>1800.21</ele>
        <time>2013-02-09T11:07:04Z</time>
      </trkpt>
      <trkpt lat="45.46505" lon="5.93128">
        <ele>1796.84</ele>
        <time>2013-02-09T11:07:08Z</time>
      </trkpt>
      <trkpt lat="45.46507" lon="5.93137">
        <ele>1794.92</ele>
        <time>2013-02-09T11:07:17Z</time>
      </trkpt>
      <trkpt lat="45.46508" lon="5.93139">
        <ele>1794.44</ele>
        <time>2013-02-09T11:07:20Z</time>
      </trkpt>
      <trkpt lat="45.46509" lon="5.93152">
        <ele>1792.52</ele>
        <time>2013-02-09T11:07:29Z</time>
      </trkpt>
      <trkpt lat="45.46509" lon="5.93153">
        <ele>1792.52</ele>
        <time>2013-02-09T11:07:31Z</time>
      </trkpt>
      <trkpt lat="45.46497" lon="5.93156">
        <ele>1789.15</ele>
        <time>2013-02-09T11:07:42Z</time>
      </trkpt>
      <trkpt lat="45.46494" lon="5.93155">
        <ele>1789.15</ele>
        <time>2013-02-09T11:07:58Z</time>
      </trkpt>
      <trkpt lat="45.46493" lon="5.93156">
        <ele>1789.15</ele>
        <time>2013-02-09T11:08:29Z</time>
      </trkpt>
      <trkpt lat="45.46494" lon="5.93155">
        <ele>1788.19</ele>
        <time>2013-02-09T11:08:38Z</time>
      </trkpt>
      <trkpt lat="45.46496" lon="5.93156">
        <ele>1789.15</ele>
        <time>2013-02-09T11:08:48Z</time>
      </trkpt>
      <trkpt lat="45.465" lon="5.93157">
        <ele>1790.11</ele>
        <time>2013-02-09T11:08:59Z</time>
      </trkpt>
      <trkpt lat="45.46504" lon="5.93159">
        <ele>1790.59</ele>
        <time>2013-02-09T11:09:11Z</time>
      </trkpt>
      <trkpt lat="45.46504" lon="5.93159">
        <ele>1791.07</ele>
        <time>2013-02-09T11:09:13Z</time>
      </trkpt>
      <trkpt lat="45.46507" lon="5.93161">
        <ele>1791.55</ele>
        <time>2013-02-09T11:09:22Z</time>
      </trkpt>
      <trkpt lat="45.4651" lon="5.93161">
        <ele>1792.03</ele>
        <time>2013-02-09T11:09:33Z</time>
      </trkpt>
      <trkpt lat="45.46514" lon="5.93162">
        <ele>1792.52</ele>
        <time>2013-02-09T11:09:46Z</time>
      </trkpt>
      <trkpt lat="45.46516" lon="5.93163">
        <ele>1793</ele>
        <time>2013-02-09T11:10:00Z</time>
      </trkpt>
      <trkpt lat="45.46519" lon="5.93163">
        <ele>1793.96</ele>
        <time>2013-02-09T11:10:11Z</time>
      </trkpt>
      <trkpt lat="45.46523" lon="5.93161">
        <ele>1793.96</ele>
        <time>2013-02-09T11:10:23Z</time>
      </trkpt>
      <trkpt lat="45.46523" lon="5.93161">
        <ele>1793.96</ele>
        <time>2013-02-09T11:10:35Z</time>
      </trkpt>
      <trkpt lat="45.46524" lon="5.9316">
        <ele>1794.44</ele>
        <time>2013-02-09T11:11:40Z</time>
      </trkpt>
      <trkpt lat="45.46524" lon="5.93161">
        <ele>1794.92</ele>
        <time>2013-02-09T11:12:39Z</time>
      </trkpt>
      <trkpt lat="45.46522" lon="5.93166">
        <ele>1793.96</ele>
        <time>2013-02-09T11:12:52Z</time>
      </trkpt>
      <trkpt lat="45.46519" lon="5.93165">
        <ele>1793.96</ele>
        <time>2013-02-09T11:13:23Z</time>
      </trkpt>
      <trkpt lat="45.46519" lon="5.93164">
        <ele>1794.44</ele>
        <time>2013-02-09T11:13:40Z</time>
      </trkpt>
      <trkpt lat="45.4652" lon="5.93164">
        <ele>1793.96</ele>
        <time>2013-02-09T11:13:56Z</time>
      </trkpt>
      <trkpt lat="45.4652" lon="5.93164">
        <ele>1794.92</ele>
        <time>2013-02-09T11:14:08Z</time>
      </trkpt>
      <trkpt lat="45.46519" lon="5.93165">
        <ele>1794.92</ele>
        <time>2013-02-09T11:14:16Z</time>
      </trkpt>
      <trkpt lat="45.46499" lon="5.93155">
        <ele>1792.03</ele>
        <time>2013-02-09T11:14:24Z</time>
      </trkpt>
      <trkpt lat="45.46486" lon="5.93156">
        <ele>1789.15</ele>
        <time>2013-02-09T11:14:32Z</time>
      </trkpt>
      <trkpt lat="45.46485" lon="5.93156">
        <ele>1788.67</ele>
        <time>2013-02-09T11:15:09Z</time>
      </trkpt>
      <trkpt lat="45.46485" lon="5.93156">
        <ele>1788.67</ele>
        <time>2013-02-09T11:15:30Z</time>
      </trkpt>
      <trkpt lat="45.46483" lon="5.93169">
        <ele>1785.31</ele>
        <time>2013-02-09T11:15:35Z</time>
      </trkpt>
      <trkpt lat="45.46482" lon="5.93171">
        <ele>1781.46</ele>
        <time>2013-02-09T11:15:37Z</time>
      </trkpt>
      <trkpt lat="45.46482" lon="5.93172">
        <ele>1779.06</ele>
        <time>2013-02-09T11:15:40Z</time>
      </trkpt>
      <trkpt lat="45.46482" lon="5.93172">
        <ele>1778.58</ele>
        <time>2013-02-09T11:15:45Z</time>
      </trkpt>
      <trkpt lat="45.46482" lon="5.93171">
        <ele>1778.1</ele>
        <time>2013-02-09T11:15:57Z</time>
      </trkpt>
      <trkpt lat="45.46481" lon="5.93171">
        <ele>1777.61</ele>
        <time>2013-02-09T11:16:32Z</time>
      </trkpt>
      <trkpt lat="45.4648" lon="5.93172">
        <ele>1778.1</ele>
        <time>2013-02-09T11:17:07Z</time>
      </trkpt>
      <trkpt lat="45.46478" lon="5.93176">
        <ele>1776.17</ele>
        <time>2013-02-09T11:17:23Z</time>
      </trkpt>
      <trkpt lat="45.46478" lon="5.93176">
        <ele>1774.73</ele>
        <time>2013-02-09T11:17:37Z</time>
      </trkpt>
      <trkpt lat="45.46476" lon="5.93182">
        <ele>1773.29</ele>
        <time>2013-02-09T11:17:45Z</time>
      </trkpt>
      <trkpt lat="45.46483" lon="5.93188">
        <ele>1768</ele>
        <time>2013-02-09T11:17:49Z</time>
      </trkpt>
      <trkpt lat="45.46485" lon="5.93188">
        <ele>1764.64</ele>
        <time>2013-02-09T11:17:51Z</time>
      </trkpt>
      <trkpt lat="45.46486" lon="5.93189">
        <ele>1763.2</ele>
        <time>2013-02-09T11:17:54Z</time>
      </trkpt>
      <trkpt lat="45.46488" lon="5.9319">
        <ele>1762.23</ele>
        <time>2013-02-09T11:17:57Z</time>
      </trkpt>
      <trkpt lat="45.46492" lon="5.93189">
        <ele>1759.83</ele>
        <time>2013-02-09T11:18:07Z</time>
      </trkpt>
      <trkpt lat="45.46493" lon="5.93187">
        <ele>1759.83</ele>
        <time>2013-02-09T11:18:10Z</time>
      </trkpt>
      <trkpt lat="45.465" lon="5.93192">
        <ele>1755.99</ele>
        <time>2013-02-09T11:18:19Z</time>
      </trkpt>
      <trkpt lat="45.465" lon="5.93191">
        <ele>1755.5</ele>
        <time>2013-02-09T11:18:21Z</time>
      </trkpt>
      <trkpt lat="45.465" lon="5.93193">
        <ele>1755.5</ele>
        <time>2013-02-09T11:19:06Z</time>
      </trkpt>
      <trkpt lat="45.465" lon="5.93195">
        <ele>1756.47</ele>
        <time>2013-02-09T11:19:52Z</time>
      </trkpt>
      <trkpt lat="45.46497" lon="5.93199">
        <ele>1755.99</ele>
        <time>2013-02-09T11:19:59Z</time>
      </trkpt>
      <trkpt lat="45.46495" lon="5.93204">
        <ele>1752.62</ele>
        <time>2013-02-09T11:20:04Z</time>
      </trkpt>
      <trkpt lat="45.46495" lon="5.93206">
        <ele>1751.18</ele>
        <time>2013-02-09T11:20:29Z</time>
      </trkpt>
      <trkpt lat="45.46495" lon="5.93207">
        <ele>1750.7</ele>
        <time>2013-02-09T11:20:56Z</time>
      </trkpt>
      <trkpt lat="45.46495" lon="5.93207">
        <ele>1751.18</ele>
        <time>2013-02-09T11:21:33Z</time>
      </trkpt>
      <trkpt lat="45.46492" lon="5.93214">
        <ele>1748.78</ele>
        <time>2013-02-09T11:21:36Z</time>
      </trkpt>
      <trkpt lat="45.46491" lon="5.93218">
        <ele>1747.33</ele>
        <time>2013-02-09T11:21:37Z</time>
      </trkpt>
      <trkpt lat="45.46488" lon="5.93232">
        <ele>1740.12</ele>
        <time>2013-02-09T11:21:40Z</time>
      </trkpt>
      <trkpt lat="45.46487" lon="5.93244">
        <ele>1734.36</ele>
        <time>2013-02-09T11:21:42Z</time>
      </trkpt>
      <trkpt lat="45.46487" lon="5.93251">
        <ele>1730.99</ele>
        <time>2013-02-09T11:21:43Z</time>
      </trkpt>
      <trkpt lat="45.46487" lon="5.93258">
        <ele>1727.63</ele>
        <time>2013-02-09T11:21:44Z</time>
      </trkpt>
      <trkpt lat="45.46488" lon="5.93263">
        <ele>1722.82</ele>
        <time>2013-02-09T11:21:45Z</time>
      </trkpt>
      <trkpt lat="45.46489" lon="5.9327">
        <ele>1722.82</ele>
        <time>2013-02-09T11:21:46Z</time>
      </trkpt>
      <trkpt lat="45.46491" lon="5.93282">
        <ele>1714.17</ele>
        <time>2013-02-09T11:21:48Z</time>
      </trkpt>
      <trkpt lat="45.4649" lon="5.93287">
        <ele>1710.32</ele>
        <time>2013-02-09T11:21:49Z</time>
      </trkpt>
      <trkpt lat="45.46492" lon="5.93289">
        <ele>1706.48</ele>
        <time>2013-02-09T11:21:50Z</time>
      </trkpt>
      <trkpt lat="45.46495" lon="5.93292">
        <ele>1703.11</ele>
        <time>2013-02-09T11:21:51Z</time>
      </trkpt>
      <trkpt lat="45.46501" lon="5.93297">
        <ele>1694.94</ele>
        <time>2013-02-09T11:21:54Z</time>
      </trkpt>
      <trkpt lat="45.46501" lon="5.933">
        <ele>1694.94</ele>
        <time>2013-02-09T11:21:55Z</time>
      </trkpt>
      <trkpt lat="45.465" lon="5.93301">
        <ele>1690.62</ele>
        <time>2013-02-09T11:21:57Z</time>
      </trkpt>
      <trkpt lat="45.465" lon="5.93301">
        <ele>1687.73</ele>
        <time>2013-02-09T11:22:00Z</time>
      </trkpt>
      <trkpt lat="45.465" lon="5.93301">
        <ele>1687.25</ele>
        <time>2013-02-09T11:22:01Z</time>
      </trkpt>
      <trkpt lat="45.465" lon="5.93301">
        <ele>1688.69</ele>
        <time>2013-02-09T11:23:29Z</time>
      </trkpt>
      <trkpt lat="45.465" lon="5.93301">
        <ele>1688.69</ele>
        <time>2013-02-09T11:23:47Z</time>
      </trkpt>
      <trkpt lat="45.46494" lon="5.93305">
        <ele>1686.77</ele>
        <time>2013-02-09T11:23:51Z</time>
      </trkpt>
      <trkpt lat="45.46497" lon="5.93309">
        <ele>1683.41</ele>
        <time>2013-02-09T11:23:57Z</time>
      </trkpt>
      <trkpt lat="45.46496" lon="5.93308">
        <ele>1681</ele>
        <time>2013-02-09T11:24:01Z</time>
      </trkpt>
      <trkpt lat="45.46496" lon="5.93311">
        <ele>1680.04</ele>
        <time>2013-02-09T11:24:22Z</time>
      </trkpt>
      <trkpt lat="45.46501" lon="5.93312">
        <ele>1676.68</ele>
        <time>2013-02-09T11:24:37Z</time>
      </trkpt>
      <trkpt lat="45.46498" lon="5.93314">
        <ele>1677.64</ele>
        <time>2013-02-09T11:26:29Z</time>
      </trkpt>
      <trkpt lat="45.46499" lon="5.93312">
        <ele>1678.6</ele>
        <time>2013-02-09T11:27:14Z</time>
      </trkpt>
      <trkpt lat="45.46498" lon="5.93312">
        <ele>1679.56</ele>
        <time>2013-02-09T11:28:57Z</time>
      </trkpt>
      <trkpt lat="45.465" lon="5.93307">
        <ele>1680.04</ele>
        <time>2013-02-09T11:30:25Z</time>
      </trkpt>
      <trkpt lat="45.46499" lon="5.93307">
        <ele>1680.04</ele>
        <time>2013-02-09T11:31:11Z</time>
      </trkpt>
      <trkpt lat="45.465" lon="5.9331">
        <ele>1680.04</ele>
        <time>2013-02-09T11:33:28Z</time>
      </trkpt>
      <trkpt lat="45.465" lon="5.93313">
        <ele>1681</ele>
        <time>2013-02-09T11:35:19Z</time>
      </trkpt>
      <trkpt lat="45.46501" lon="5.93316">
        <ele>1682.44</ele>
        <time>2013-02-09T11:41:13Z</time>
      </trkpt>
      <trkpt lat="45.46499" lon="5.9332">
        <ele>1681</ele>
        <time>2013-02-09T11:41:33Z</time>
      </trkpt>
      <trkpt lat="45.46498" lon="5.93321">
        <ele>1680.04</ele>
        <time>2013-02-09T11:42:13Z</time>
      </trkpt>
      <trkpt lat="45.465" lon="5.93324">
        <ele>1677.16</ele>
        <time>2013-02-09T11:43:50Z</time>
      </trkpt>
      <trkpt lat="45.46501" lon="5.93331">
        <ele>1673.79</ele>
        <time>2013-02-09T11:44:10Z</time>
      </trkpt>
      <trkpt lat="45.46503" lon="5.9333">
        <ele>1670.91</ele>
        <time>2013-02-09T11:44:26Z</time>
      </trkpt>
      <trkpt lat="45.46508" lon="5.93326">
        <ele>1668.99</ele>
        <time>2013-02-09T11:45:02Z</time>
      </trkpt>
      <trkpt lat="45.46514" lon="5.93324">
        <ele>1669.47</ele>
        <time>2013-02-09T11:45:54Z</time>
      </trkpt>
      <trkpt lat="45.46511" lon="5.93325">
        <ele>1671.39</ele>
        <time>2013-02-09T11:49:12Z</time>
      </trkpt>
      <trkpt lat="45.4651" lon="5.93324">
        <ele>1671.39</ele>
        <time>2013-02-09T11:50:32Z</time>
      </trkpt>
      <trkpt lat="45.46512" lon="5.93319">
        <ele>1671.87</ele>
        <time>2013-02-09T11:51:11Z</time>
      </trkpt>
      <trkpt lat="45.46515" lon="5.93333">
        <ele>1668.02</ele>
        <time>2013-02-09T11:51:25Z</time>
      </trkpt>
      <trkpt lat="45.46514" lon="5.93335">
        <ele>1665.14</ele>
        <time>2013-02-09T11:51:51Z</time>
      </trkpt>
      <trkpt lat="45.46503" lon="5.93339">
        <ele>1661.78</ele>
        <time>2013-02-09T11:51:56Z</time>
      </trkpt>
      <trkpt lat="45.46496" lon="5.93347">
        <ele>1658.41</ele>
        <time>2013-02-09T11:52:04Z</time>
      </trkpt>
      <trkpt lat="45.46492" lon="5.9335">
        <ele>1655.53</ele>
        <time>2013-02-09T11:52:11Z</time>
      </trkpt>
      <trkpt lat="45.46492" lon="5.93352">
        <ele>1654.57</ele>
        <time>2013-02-09T11:52:14Z</time>
      </trkpt>
      <trkpt lat="45.46487" lon="5.93369">
        <ele>1651.2</ele>
        <time>2013-02-09T11:52:17Z</time>
      </trkpt>
      <trkpt lat="45.46493" lon="5.93383">
        <ele>1645.91</ele>
        <time>2013-02-09T11:52:19Z</time>
      </trkpt>
      <trkpt lat="45.465" lon="5.93396">
        <ele>1639.19</ele>
        <time>2013-02-09T11:52:21Z</time>
      </trkpt>
      <trkpt lat="45.46502" lon="5.93402">
        <ele>1635.34</ele>
        <time>2013-02-09T11:52:22Z</time>
      </trkpt>
      <trkpt lat="45.46503" lon="5.93407">
        <ele>1635.34</ele>
        <time>2013-02-09T11:52:23Z</time>
      </trkpt>
      <trkpt lat="45.46502" lon="5.93409">
        <ele>1631.49</ele>
        <time>2013-02-09T11:52:24Z</time>
      </trkpt>
      <trkpt lat="45.46501" lon="5.93409">
        <ele>1626.69</ele>
        <time>2013-02-09T11:52:26Z</time>
      </trkpt>
      <trkpt lat="45.465" lon="5.93409">
        <ele>1626.21</ele>
        <time>2013-02-09T11:53:29Z</time>
      </trkpt>
      <trkpt lat="45.46513" lon="5.93421">
        <ele>1622.84</ele>
        <time>2013-02-09T11:53:33Z</time>
      </trkpt>
      <trkpt lat="45.46517" lon="5.93426">
        <ele>1620.44</ele>
        <time>2013-02-09T11:53:34Z</time>
      </trkpt>
      <trkpt lat="45.46534" lon="5.93436">
        <ele>1610.35</ele>
        <time>2013-02-09T11:53:37Z</time>
      </trkpt>
      <trkpt lat="45.46538" lon="5.93436">
        <ele>1606.98</ele>
        <time>2013-02-09T11:53:38Z</time>
      </trkpt>
      <trkpt lat="45.46542" lon="5.93436">
        <ele>1604.1</ele>
        <time>2013-02-09T11:53:39Z</time>
      </trkpt>
      <trkpt lat="45.46549" lon="5.93434">
        <ele>1604.1</ele>
        <time>2013-02-09T11:53:40Z</time>
      </trkpt>
      <trkpt lat="45.46555" lon="5.93434">
        <ele>1600.25</ele>
        <time>2013-02-09T11:53:42Z</time>
      </trkpt>
      <trkpt lat="45.46564" lon="5.93431">
        <ele>1596.89</ele>
        <time>2013-02-09T11:53:45Z</time>
      </trkpt>
      <trkpt lat="45.4657" lon="5.93424">
        <ele>1593.04</ele>
        <time>2013-02-09T11:53:48Z</time>
      </trkpt>
      <trkpt lat="45.46573" lon="5.93419">
        <ele>1591.12</ele>
        <time>2013-02-09T11:53:51Z</time>
      </trkpt>
      <trkpt lat="45.46578" lon="5.93415">
        <ele>1587.75</ele>
        <time>2013-02-09T11:53:57Z</time>
      </trkpt>
      <trkpt lat="45.46582" lon="5.93408">
        <ele>1584.87</ele>
        <time>2013-02-09T11:54:01Z</time>
      </trkpt>
      <trkpt lat="45.46584" lon="5.93406">
        <ele>1584.87</ele>
        <time>2013-02-09T11:54:02Z</time>
      </trkpt>
      <trkpt lat="45.46586" lon="5.93411">
        <ele>1582.47</ele>
        <time>2013-02-09T11:54:06Z</time>
      </trkpt>
      <trkpt lat="45.46584" lon="5.93414">
        <ele>1581.03</ele>
        <time>2013-02-09T11:54:08Z</time>
      </trkpt>
      <trkpt lat="45.46588" lon="5.93417">
        <ele>1578.14</ele>
        <time>2013-02-09T11:54:12Z</time>
      </trkpt>
      <trkpt lat="45.46587" lon="5.93416">
        <ele>1575.74</ele>
        <time>2013-02-09T11:54:20Z</time>
      </trkpt>
      <trkpt lat="45.46585" lon="5.93426">
        <ele>1573.33</ele>
        <time>2013-02-09T11:54:23Z</time>
      </trkpt>
      <trkpt lat="45.46583" lon="5.93429">
        <ele>1570.45</ele>
        <time>2013-02-09T11:54:26Z</time>
      </trkpt>
      <trkpt lat="45.46584" lon="5.93428">
        <ele>1569.49</ele>
        <time>2013-02-09T11:54:28Z</time>
      </trkpt>
      <trkpt lat="45.46583" lon="5.9343">
        <ele>1567.57</ele>
        <time>2013-02-09T11:54:32Z</time>
      </trkpt>
      <trkpt lat="45.46585" lon="5.93439">
        <ele>1563.72</ele>
        <time>2013-02-09T11:54:38Z</time>
      </trkpt>
      <trkpt lat="45.46589" lon="5.93447">
        <ele>1560.36</ele>
        <time>2013-02-09T11:54:43Z</time>
      </trkpt>
      <trkpt lat="45.46595" lon="5.93462">
        <ele>1555.55</ele>
        <time>2013-02-09T11:54:47Z</time>
      </trkpt>
      <trkpt lat="45.46596" lon="5.93472">
        <ele>1550.26</ele>
        <time>2013-02-09T11:54:49Z</time>
      </trkpt>
      <trkpt lat="45.46595" lon="5.93481">
        <ele>1544.01</ele>
        <time>2013-02-09T11:54:51Z</time>
      </trkpt>
      <trkpt lat="45.46594" lon="5.93488">
        <ele>1538.25</ele>
        <time>2013-02-09T11:54:53Z</time>
      </trkpt>
      <trkpt lat="45.46594" lon="5.93494">
        <ele>1533.92</ele>
        <time>2013-02-09T11:54:55Z</time>
      </trkpt>
      <trkpt lat="45.46594" lon="5.93495">
        <ele>1534.4</ele>
        <time>2013-02-09T11:54:56Z</time>
      </trkpt>
      <trkpt lat="45.46593" lon="5.93491">
        <ele>1532</ele>
        <time>2013-02-09T11:54:59Z</time>
      </trkpt>
      <trkpt lat="45.46594" lon="5.93492">
        <ele>1532</ele>
        <time>2013-02-09T11:55:15Z</time>
      </trkpt>
      <trkpt lat="45.46602" lon="5.93497">
        <ele>1530.08</ele>
        <time>2013-02-09T11:55:18Z</time>
      </trkpt>
      <trkpt lat="45.466" lon="5.93503">
        <ele>1525.27</ele>
        <time>2013-02-09T11:55:21Z</time>
      </trkpt>
      <trkpt lat="45.46597" lon="5.93506">
        <ele>1521.9</ele>
        <time>2013-02-09T11:55:24Z</time>
      </trkpt>
      <trkpt lat="45.46606" lon="5.93509">
        <ele>1520.46</ele>
        <time>2013-02-09T11:55:27Z</time>
      </trkpt>
      <trkpt lat="45.46616" lon="5.9351">
        <ele>1517.1</ele>
        <time>2013-02-09T11:55:30Z</time>
      </trkpt>
      <trkpt lat="45.4662" lon="5.93515">
        <ele>1513.25</ele>
        <time>2013-02-09T11:55:32Z</time>
      </trkpt>
      <trkpt lat="45.46619" lon="5.93529">
        <ele>1506.04</ele>
        <time>2013-02-09T11:55:35Z</time>
      </trkpt>
      <trkpt lat="45.46619" lon="5.93541">
        <ele>1500.27</ele>
        <time>2013-02-09T11:55:37Z</time>
      </trkpt>
      <trkpt lat="45.46616" lon="5.93547">
        <ele>1500.27</ele>
        <time>2013-02-09T11:55:38Z</time>
      </trkpt>
      <trkpt lat="45.46614" lon="5.9355">
        <ele>1496.43</ele>
        <time>2013-02-09T11:55:39Z</time>
      </trkpt>
      <trkpt lat="45.46611" lon="5.93552">
        <ele>1493.55</ele>
        <time>2013-02-09T11:55:40Z</time>
      </trkpt>
      <trkpt lat="45.46609" lon="5.93552">
        <ele>1489.7</ele>
        <time>2013-02-09T11:55:42Z</time>
      </trkpt>
      <trkpt lat="45.46608" lon="5.9355">
        <ele>1488.74</ele>
        <time>2013-02-09T11:55:44Z</time>
      </trkpt>
      <trkpt lat="45.46597" lon="5.93553">
        <ele>1487.78</ele>
        <time>2013-02-09T11:55:59Z</time>
      </trkpt>
      <trkpt lat="45.46591" lon="5.93553">
        <ele>1488.26</ele>
        <time>2013-02-09T11:56:10Z</time>
      </trkpt>
      <trkpt lat="45.46579" lon="5.93566">
        <ele>1487.3</ele>
        <time>2013-02-09T11:56:22Z</time>
      </trkpt>
      <trkpt lat="45.46567" lon="5.93578">
        <ele>1484.41</ele>
        <time>2013-02-09T11:56:31Z</time>
      </trkpt>
      <trkpt lat="45.46563" lon="5.93582">
        <ele>1485.85</ele>
        <time>2013-02-09T11:56:47Z</time>
      </trkpt>
      <trkpt lat="45.46558" lon="5.93592">
        <ele>1483.45</ele>
        <time>2013-02-09T11:56:53Z</time>
      </trkpt>
      <trkpt lat="45.46556" lon="5.93605">
        <ele>1480.57</ele>
        <time>2013-02-09T11:56:56Z</time>
      </trkpt>
      <trkpt lat="45.4656" lon="5.93614">
        <ele>1476.72</ele>
        <time>2013-02-09T11:56:58Z</time>
      </trkpt>
      <trkpt lat="45.46562" lon="5.93617">
        <ele>1474.32</ele>
        <time>2013-02-09T11:56:59Z</time>
      </trkpt>
      <trkpt lat="45.46566" lon="5.93621">
        <ele>1467.11</ele>
        <time>2013-02-09T11:57:02Z</time>
      </trkpt>
      <trkpt lat="45.46564" lon="5.93619">
        <ele>1466.15</ele>
        <time>2013-02-09T11:57:04Z</time>
      </trkpt>
      <trkpt lat="45.46564" lon="5.9362">
        <ele>1465.19</ele>
        <time>2013-02-09T11:57:36Z</time>
      </trkpt>
      <trkpt lat="45.46559" lon="5.93631">
        <ele>1460.86</ele>
        <time>2013-02-09T11:57:41Z</time>
      </trkpt>
      <trkpt lat="45.46558" lon="5.93636">
        <ele>1458.94</ele>
        <time>2013-02-09T11:58:00Z</time>
      </trkpt>
      <trkpt lat="45.46564" lon="5.93645">
        <ele>1457.5</ele>
        <time>2013-02-09T11:58:26Z</time>
      </trkpt>
      <trkpt lat="45.46573" lon="5.93654">
        <ele>1455.09</ele>
        <time>2013-02-09T11:58:29Z</time>
      </trkpt>
      <trkpt lat="45.46576" lon="5.93663">
        <ele>1450.77</ele>
        <time>2013-02-09T11:58:31Z</time>
      </trkpt>
      <trkpt lat="45.46583" lon="5.93672">
        <ele>1444.52</ele>
        <time>2013-02-09T11:58:33Z</time>
      </trkpt>
      <trkpt lat="45.46583" lon="5.9368">
        <ele>1439.23</ele>
        <time>2013-02-09T11:58:35Z</time>
      </trkpt>
      <trkpt lat="45.46581" lon="5.93683">
        <ele>1435.87</ele>
        <time>2013-02-09T11:58:37Z</time>
      </trkpt>
      <trkpt lat="45.46581" lon="5.93703">
        <ele>1432.5</ele>
        <time>2013-02-09T11:58:45Z</time>
      </trkpt>
      <trkpt lat="45.46583" lon="5.9371">
        <ele>1428.66</ele>
        <time>2013-02-09T11:58:47Z</time>
      </trkpt>
      <trkpt lat="45.46584" lon="5.93715">
        <ele>1426.25</ele>
        <time>2013-02-09T11:58:48Z</time>
      </trkpt>
      <trkpt lat="45.46588" lon="5.93733">
        <ele>1420.49</ele>
        <time>2013-02-09T11:58:51Z</time>
      </trkpt>
      <trkpt lat="45.46587" lon="5.93736">
        <ele>1417.6</ele>
        <time>2013-02-09T11:58:52Z</time>
      </trkpt>
      <trkpt lat="45.46584" lon="5.93746">
        <ele>1412.79</ele>
        <time>2013-02-09T11:58:56Z</time>
      </trkpt>
      <trkpt lat="45.46584" lon="5.9376">
        <ele>1407.51</ele>
        <time>2013-02-09T11:58:59Z</time>
      </trkpt>
      <trkpt lat="45.46586" lon="5.93762">
        <ele>1405.58</ele>
        <time>2013-02-09T11:59:00Z</time>
      </trkpt>
      <trkpt lat="45.46591" lon="5.93769">
        <ele>1403.18</ele>
        <time>2013-02-09T11:59:02Z</time>
      </trkpt>
      <trkpt lat="45.46594" lon="5.93775">
        <ele>1398.86</ele>
        <time>2013-02-09T11:59:04Z</time>
      </trkpt>
      <trkpt lat="45.466" lon="5.93776">
        <ele>1395.49</ele>
        <time>2013-02-09T11:59:06Z</time>
      </trkpt>
      <trkpt lat="45.46606" lon="5.93787">
        <ele>1388.28</ele>
        <time>2013-02-09T11:59:09Z</time>
      </trkpt>
      <trkpt lat="45.46606" lon="5.93793">
        <ele>1385.4</ele>
        <time>2013-02-09T11:59:10Z</time>
      </trkpt>
      <trkpt lat="45.4661" lon="5.93806">
        <ele>1380.11</ele>
        <time>2013-02-09T11:59:13Z</time>
      </trkpt>
      <trkpt lat="45.46611" lon="5.93805">
        <ele>1378.19</ele>
        <time>2013-02-09T11:59:14Z</time>
      </trkpt>
      <trkpt lat="45.46617" lon="5.93804">
        <ele>1374.82</ele>
        <time>2013-02-09T11:59:16Z</time>
      </trkpt>
      <trkpt lat="45.46627" lon="5.93814">
        <ele>1369.05</ele>
        <time>2013-02-09T11:59:20Z</time>
      </trkpt>
      <trkpt lat="45.46629" lon="5.93825">
        <ele>1364.73</ele>
        <time>2013-02-09T11:59:22Z</time>
      </trkpt>
      <trkpt lat="45.4663" lon="5.93829">
        <ele>1362.33</ele>
        <time>2013-02-09T11:59:23Z</time>
      </trkpt>
      <trkpt lat="45.46632" lon="5.93828">
        <ele>1358.96</ele>
        <time>2013-02-09T11:59:26Z</time>
      </trkpt>
      <trkpt lat="45.46633" lon="5.93828">
        <ele>1357.04</ele>
        <time>2013-02-09T11:59:29Z</time>
      </trkpt>
      <trkpt lat="45.46633" lon="5.93829">
        <ele>1358.48</ele>
        <time>2013-02-09T12:00:31Z</time>
      </trkpt>
      <trkpt lat="45.46639" lon="5.93847">
        <ele>1354.63</ele>
        <time>2013-02-09T12:00:34Z</time>
      </trkpt>
      <trkpt lat="45.46644" lon="5.93867">
        <ele>1351.75</ele>
        <time>2013-02-09T12:00:36Z</time>
      </trkpt>
      <trkpt lat="45.46645" lon="5.93876">
        <ele>1348.39</ele>
        <time>2013-02-09T12:00:37Z</time>
      </trkpt>
      <trkpt lat="45.46652" lon="5.9389">
        <ele>1340.7</ele>
        <time>2013-02-09T12:00:39Z</time>
      </trkpt>
      <trkpt lat="45.46655" lon="5.93897">
        <ele>1336.85</ele>
        <time>2013-02-09T12:00:40Z</time>
      </trkpt>
      <trkpt lat="45.46658" lon="5.93903">
        <ele>1333.01</ele>
        <time>2013-02-09T12:00:41Z</time>
      </trkpt>
      <trkpt lat="45.46661" lon="5.93908">
        <ele>1329.16</ele>
        <time>2013-02-09T12:00:42Z</time>
      </trkpt>
      <trkpt lat="45.46665" lon="5.93912">
        <ele>1326.76</ele>
        <time>2013-02-09T12:00:43Z</time>
      </trkpt>
      <trkpt lat="45.46683" lon="5.93914">
        <ele>1320.51</ele>
        <time>2013-02-09T12:00:46Z</time>
      </trkpt>
      <trkpt lat="45.46688" lon="5.93915">
        <ele>1320.51</ele>
        <time>2013-02-09T12:00:47Z</time>
      </trkpt>
      <trkpt lat="45.4669" lon="5.93916">
        <ele>1319.55</ele>
        <time>2013-02-09T12:00:48Z</time>
      </trkpt>
      <trkpt lat="45.46674" lon="5.93911">
        <ele>1318.1</ele>
        <time>2013-02-09T12:01:06Z</time>
      </trkpt>
      <trkpt lat="45.46671" lon="5.93915">
        <ele>1319.07</ele>
        <time>2013-02-09T12:01:42Z</time>
      </trkpt>
      <trkpt lat="45.46674" lon="5.93933">
        <ele>1315.7</ele>
        <time>2013-02-09T12:01:46Z</time>
      </trkpt>
      <trkpt lat="45.46679" lon="5.93948">
        <ele>1309.93</ele>
        <time>2013-02-09T12:01:49Z</time>
      </trkpt>
      <trkpt lat="45.46681" lon="5.9395">
        <ele>1307.53</ele>
        <time>2013-02-09T12:01:50Z</time>
      </trkpt>
      <trkpt lat="45.46689" lon="5.93946">
        <ele>1304.17</ele>
        <time>2013-02-09T12:01:53Z</time>
      </trkpt>
      <trkpt lat="45.46689" lon="5.93945">
        <ele>1302.24</ele>
        <time>2013-02-09T12:01:56Z</time>
      </trkpt>
      <trkpt lat="45.46713" lon="5.93941">
        <ele>1299.84</ele>
        <time>2013-02-09T12:02:09Z</time>
      </trkpt>
      <trkpt lat="45.46725" lon="5.93939">
        <ele>1297.44</ele>
        <time>2013-02-09T12:02:12Z</time>
      </trkpt>
      <trkpt lat="45.46736" lon="5.93936">
        <ele>1295.03</ele>
        <time>2013-02-09T12:02:15Z</time>
      </trkpt>
      <trkpt lat="45.46747" lon="5.93933">
        <ele>1292.15</ele>
        <time>2013-02-09T12:02:18Z</time>
      </trkpt>
      <trkpt lat="45.46752" lon="5.93932">
        <ele>1291.19</ele>
        <time>2013-02-09T12:02:19Z</time>
      </trkpt>
      <trkpt lat="45.46767" lon="5.93929">
        <ele>1285.42</ele>
        <time>2013-02-09T12:02:23Z</time>
      </trkpt>
      <trkpt lat="45.46777" lon="5.93927">
        <ele>1282.06</ele>
        <time>2013-02-09T12:02:26Z</time>
      </trkpt>
      <trkpt lat="45.4678" lon="5.93927">
        <ele>1282.06</ele>
        <time>2013-02-09T12:02:27Z</time>
      </trkpt>
      <trkpt lat="45.46794" lon="5.93921">
        <ele>1277.73</ele>
        <time>2013-02-09T12:02:31Z</time>
      </trkpt>
      <trkpt lat="45.46799" lon="5.9392">
        <ele>1276.29</ele>
        <time>2013-02-09T12:02:32Z</time>
      </trkpt>
      <trkpt lat="45.46811" lon="5.93933">
        <ele>1271.96</ele>
        <time>2013-02-09T12:02:35Z</time>
      </trkpt>
      <trkpt lat="45.46812" lon="5.93951">
        <ele>1267.16</ele>
        <time>2013-02-09T12:02:37Z</time>
      </trkpt>
      <trkpt lat="45.46803" lon="5.93977">
        <ele>1260.91</ele>
        <time>2013-02-09T12:02:41Z</time>
      </trkpt>
      <trkpt lat="45.46798" lon="5.93987">
        <ele>1257.54</ele>
        <time>2013-02-09T12:02:43Z</time>
      </trkpt>
      <trkpt lat="45.46794" lon="5.93999">
        <ele>1253.7</ele>
        <time>2013-02-09T12:02:45Z</time>
      </trkpt>
      <trkpt lat="45.46788" lon="5.9401">
        <ele>1250.81</ele>
        <time>2013-02-09T12:02:47Z</time>
      </trkpt>
      <trkpt lat="45.46786" lon="5.94023">
        <ele>1248.89</ele>
        <time>2013-02-09T12:02:49Z</time>
      </trkpt>
      <trkpt lat="45.46795" lon="5.94038">
        <ele>1243.6</ele>
        <time>2013-02-09T12:02:52Z</time>
      </trkpt>
      <trkpt lat="45.46804" lon="5.9404">
        <ele>1238.8</ele>
        <time>2013-02-09T12:02:54Z</time>
      </trkpt>
      <trkpt lat="45.46814" lon="5.94037">
        <ele>1234.95</ele>
        <time>2013-02-09T12:02:56Z</time>
      </trkpt>
      <trkpt lat="45.46827" lon="5.94028">
        <ele>1232.07</ele>
        <time>2013-02-09T12:02:59Z</time>
      </trkpt>
      <trkpt lat="45.46838" lon="5.94023">
        <ele>1229.18</ele>
        <time>2013-02-09T12:03:02Z</time>
      </trkpt>
      <trkpt lat="45.46844" lon="5.9402">
        <ele>1227.74</ele>
        <time>2013-02-09T12:03:04Z</time>
      </trkpt>
      <trkpt lat="45.46854" lon="5.94012">
        <ele>1225.34</ele>
        <time>2013-02-09T12:03:07Z</time>
      </trkpt>
      <trkpt lat="45.46872" lon="5.94009">
        <ele>1221.49</ele>
        <time>2013-02-09T12:03:10Z</time>
      </trkpt>
      <trkpt lat="45.46883" lon="5.94011">
        <ele>1218.13</ele>
        <time>2013-02-09T12:03:12Z</time>
      </trkpt>
      <trkpt lat="45.469" lon="5.94006">
        <ele>1211.88</ele>
        <time>2013-02-09T12:03:16Z</time>
      </trkpt>
      <trkpt lat="45.46906" lon="5.94005">
        <ele>1210.44</ele>
        <time>2013-02-09T12:03:17Z</time>
      </trkpt>
      <trkpt lat="45.46919" lon="5.94007">
        <ele>1207.55</ele>
        <time>2013-02-09T12:03:20Z</time>
      </trkpt>
      <trkpt lat="45.46928" lon="5.94012">
        <ele>1203.71</ele>
        <time>2013-02-09T12:03:23Z</time>
      </trkpt>
      <trkpt lat="45.46932" lon="5.94012">
        <ele>1200.82</ele>
        <time>2013-02-09T12:03:27Z</time>
      </trkpt>
      <trkpt lat="45.46955" lon="5.94018">
        <ele>1200.82</ele>
        <time>2013-02-09T12:04:23Z</time>
      </trkpt>
      <trkpt lat="45.46969" lon="5.94018">
        <ele>1198.42</ele>
        <time>2013-02-09T12:04:26Z</time>
      </trkpt>
      <trkpt lat="45.46981" lon="5.94012">
        <ele>1194.58</ele>
        <time>2013-02-09T12:04:29Z</time>
      </trkpt>
      <trkpt lat="45.46985" lon="5.9401">
        <ele>1194.58</ele>
        <time>2013-02-09T12:04:30Z</time>
      </trkpt>
      <trkpt lat="45.47" lon="5.9401">
        <ele>1189.77</ele>
        <time>2013-02-09T12:04:33Z</time>
      </trkpt>
      <trkpt lat="45.47005" lon="5.94011">
        <ele>1188.33</ele>
        <time>2013-02-09T12:04:34Z</time>
      </trkpt>
      <trkpt lat="45.47021" lon="5.94009">
        <ele>1183.04</ele>
        <time>2013-02-09T12:04:37Z</time>
      </trkpt>
      <trkpt lat="45.47026" lon="5.94009">
        <ele>1181.12</ele>
        <time>2013-02-09T12:04:38Z</time>
      </trkpt>
      <trkpt lat="45.47033" lon="5.94016">
        <ele>1179.19</ele>
        <time>2013-02-09T12:04:40Z</time>
      </trkpt>
      <trkpt lat="45.47031" lon="5.94032">
        <ele>1174.39</ele>
        <time>2013-02-09T12:04:42Z</time>
      </trkpt>
      <trkpt lat="45.47023" lon="5.94049">
        <ele>1171.02</ele>
        <time>2013-02-09T12:04:44Z</time>
      </trkpt>
      <trkpt lat="45.47017" lon="5.94056">
        <ele>1168.62</ele>
        <time>2013-02-09T12:04:45Z</time>
      </trkpt>
      <trkpt lat="45.47006" lon="5.94068">
        <ele>1165.74</ele>
        <time>2013-02-09T12:04:47Z</time>
      </trkpt>
      <trkpt lat="45.4699" lon="5.94087">
        <ele>1161.89</ele>
        <time>2013-02-09T12:04:50Z</time>
      </trkpt>
      <trkpt lat="45.46985" lon="5.94093">
        <ele>1161.41</ele>
        <time>2013-02-09T12:04:51Z</time>
      </trkpt>
      <trkpt lat="45.46969" lon="5.941">
        <ele>1156.12</ele>
        <time>2013-02-09T12:04:54Z</time>
      </trkpt>
      <trkpt lat="45.46968" lon="5.94097">
        <ele>1153.72</ele>
        <time>2013-02-09T12:05:07Z</time>
      </trkpt>
      <trkpt lat="45.46969" lon="5.94096">
        <ele>1156.6</ele>
        <time>2013-02-09T12:07:14Z</time>
      </trkpt>
      <trkpt lat="45.46972" lon="5.94092">
        <ele>1159.97</ele>
        <time>2013-02-09T12:07:40Z</time>
      </trkpt>
      <trkpt lat="45.46973" lon="5.94089">
        <ele>1161.41</ele>
        <time>2013-02-09T12:08:45Z</time>
      </trkpt>
      <trkpt lat="45.46999" lon="5.94091">
        <ele>1157.56</ele>
        <time>2013-02-09T12:08:51Z</time>
      </trkpt>
      <trkpt lat="45.47002" lon="5.94099">
        <ele>1156.12</ele>
        <time>2013-02-09T12:08:53Z</time>
      </trkpt>
      <trkpt lat="45.47006" lon="5.94103">
        <ele>1152.76</ele>
        <time>2013-02-09T12:08:55Z</time>
      </trkpt>
      <trkpt lat="45.47017" lon="5.94104">
        <ele>1149.87</ele>
        <time>2013-02-09T12:08:58Z</time>
      </trkpt>
      <trkpt lat="45.47029" lon="5.94101">
        <ele>1147.95</ele>
        <time>2013-02-09T12:09:03Z</time>
      </trkpt>
      <trkpt lat="45.47031" lon="5.94107">
        <ele>1145.55</ele>
        <time>2013-02-09T12:09:16Z</time>
      </trkpt>
      <trkpt lat="45.47031" lon="5.94107">
        <ele>1144.59</ele>
        <time>2013-02-09T12:09:21Z</time>
      </trkpt>
      <trkpt lat="45.47027" lon="5.94123">
        <ele>1141.7</ele>
        <time>2013-02-09T12:09:26Z</time>
      </trkpt>
      <trkpt lat="45.47025" lon="5.94128">
        <ele>1140.26</ele>
        <time>2013-02-09T12:09:29Z</time>
      </trkpt>
      <trkpt lat="45.47015" lon="5.94148">
        <ele>1136.42</ele>
        <time>2013-02-09T12:09:37Z</time>
      </trkpt>
      <trkpt lat="45.47007" lon="5.94162">
        <ele>1134.49</ele>
        <time>2013-02-09T12:09:40Z</time>
      </trkpt>
      <trkpt lat="45.47003" lon="5.94175">
        <ele>1131.13</ele>
        <time>2013-02-09T12:09:43Z</time>
      </trkpt>
      <trkpt lat="45.47019" lon="5.94182">
        <ele>1126.32</ele>
        <time>2013-02-09T12:09:47Z</time>
      </trkpt>
      <trkpt lat="45.47025" lon="5.94185">
        <ele>1124.88</ele>
        <time>2013-02-09T12:09:48Z</time>
      </trkpt>
      <trkpt lat="45.47038" lon="5.94186">
        <ele>1123.44</ele>
        <time>2013-02-09T12:09:50Z</time>
      </trkpt>
      <trkpt lat="45.47054" lon="5.94185">
        <ele>1120.07</ele>
        <time>2013-02-09T12:09:52Z</time>
      </trkpt>
      <trkpt lat="45.47062" lon="5.94186">
        <ele>1118.63</ele>
        <time>2013-02-09T12:09:53Z</time>
      </trkpt>
      <trkpt lat="45.47084" lon="5.94183">
        <ele>1112.86</ele>
        <time>2013-02-09T12:09:56Z</time>
      </trkpt>
      <trkpt lat="45.47094" lon="5.94182">
        <ele>1109.02</ele>
        <time>2013-02-09T12:09:58Z</time>
      </trkpt>
      <trkpt lat="45.47107" lon="5.94178">
        <ele>1107.1</ele>
        <time>2013-02-09T12:10:01Z</time>
      </trkpt>
      <trkpt lat="45.47122" lon="5.94172">
        <ele>1103.73</ele>
        <time>2013-02-09T12:10:05Z</time>
      </trkpt>
      <trkpt lat="45.4714" lon="5.94156">
        <ele>1099.89</ele>
        <time>2013-02-09T12:10:12Z</time>
      </trkpt>
      <trkpt lat="45.47145" lon="5.94142">
        <ele>1097.96</ele>
        <time>2013-02-09T12:10:24Z</time>
      </trkpt>
      <trkpt lat="45.4715" lon="5.94134">
        <ele>1097</ele>
        <time>2013-02-09T12:10:27Z</time>
      </trkpt>
      <trkpt lat="45.47161" lon="5.94144">
        <ele>1095.08</ele>
        <time>2013-02-09T12:10:34Z</time>
      </trkpt>
      <trkpt lat="45.47145" lon="5.94184">
        <ele>1091.71</ele>
        <time>2013-02-09T12:10:47Z</time>
      </trkpt>
      <trkpt lat="45.47127" lon="5.94222">
        <ele>1087.87</ele>
        <time>2013-02-09T12:10:55Z</time>
      </trkpt>
      <trkpt lat="45.4711" lon="5.94246">
        <ele>1084.5</ele>
        <time>2013-02-09T12:10:59Z</time>
      </trkpt>
      <trkpt lat="45.4709" lon="5.94259">
        <ele>1082.58</ele>
        <time>2013-02-09T12:11:03Z</time>
      </trkpt>
      <trkpt lat="45.47076" lon="5.94268">
        <ele>1081.14</ele>
        <time>2013-02-09T12:11:06Z</time>
      </trkpt>
      <trkpt lat="45.47052" lon="5.94298">
        <ele>1077.29</ele>
        <time>2013-02-09T12:11:14Z</time>
      </trkpt>
      <trkpt lat="45.47026" lon="5.94315">
        <ele>1074.41</ele>
        <time>2013-02-09T12:11:23Z</time>
      </trkpt>
      <trkpt lat="45.47008" lon="5.94306">
        <ele>1072.01</ele>
        <time>2013-02-09T12:11:28Z</time>
      </trkpt>
      <trkpt lat="45.46991" lon="5.94319">
        <ele>1070.08</ele>
        <time>2013-02-09T12:11:33Z</time>
      </trkpt>
      <trkpt lat="45.46983" lon="5.94366">
        <ele>1066.72</ele>
        <time>2013-02-09T12:11:43Z</time>
      </trkpt>
      <trkpt lat="45.46959" lon="5.94391">
        <ele>1063.36</ele>
        <time>2013-02-09T12:11:51Z</time>
      </trkpt>
      <trkpt lat="45.46947" lon="5.9439">
        <ele>1061.91</ele>
        <time>2013-02-09T12:11:54Z</time>
      </trkpt>
      <trkpt lat="45.46933" lon="5.94399">
        <ele>1060.47</ele>
        <time>2013-02-09T12:11:58Z</time>
      </trkpt>
      <trkpt lat="45.46922" lon="5.94441">
        <ele>1057.11</ele>
        <time>2013-02-09T12:12:05Z</time>
      </trkpt>
      <trkpt lat="45.46916" lon="5.94452">
        <ele>1055.67</ele>
        <time>2013-02-09T12:12:07Z</time>
      </trkpt>
      <trkpt lat="45.46908" lon="5.94463">
        <ele>1055.18</ele>
        <time>2013-02-09T12:12:09Z</time>
      </trkpt>
      <trkpt lat="45.46911" lon="5.94479">
        <ele>1051.82</ele>
        <time>2013-02-09T12:12:13Z</time>
      </trkpt>
      <trkpt lat="45.46926" lon="5.94463">
        <ele>1048.45</ele>
        <time>2013-02-09T12:12:18Z</time>
      </trkpt>
      <trkpt lat="45.46938" lon="5.94441">
        <ele>1045.57</ele>
        <time>2013-02-09T12:12:23Z</time>
      </trkpt>
      <trkpt lat="45.46963" lon="5.94433">
        <ele>1042.69</ele>
        <time>2013-02-09T12:12:28Z</time>
      </trkpt>
      <trkpt lat="45.46969" lon="5.94436">
        <ele>1041.73</ele>
        <time>2013-02-09T12:12:29Z</time>
      </trkpt>
      <trkpt lat="45.47" lon="5.94449">
        <ele>1037.88</ele>
        <time>2013-02-09T12:12:34Z</time>
      </trkpt>
      <trkpt lat="45.47016" lon="5.94444">
        <ele>1035.48</ele>
        <time>2013-02-09T12:12:37Z</time>
      </trkpt>
      <trkpt lat="45.47021" lon="5.94436">
        <ele>1034.52</ele>
        <time>2013-02-09T12:12:38Z</time>
      </trkpt>
      <trkpt lat="45.47029" lon="5.94423">
        <ele>1031.63</ele>
        <time>2013-02-09T12:12:40Z</time>
      </trkpt>
      <trkpt lat="45.47052" lon="5.94422">
        <ele>1026.83</ele>
        <time>2013-02-09T12:12:44Z</time>
      </trkpt>
      <trkpt lat="45.47057" lon="5.94427">
        <ele>1026.34</ele>
        <time>2013-02-09T12:12:45Z</time>
      </trkpt>
      <trkpt lat="45.47065" lon="5.94436">
        <ele>1025.38</ele>
        <time>2013-02-09T12:12:47Z</time>
      </trkpt>
      <trkpt lat="45.47069" lon="5.94441">
        <ele>1025.38</ele>
        <time>2013-02-09T12:12:48Z</time>
      </trkpt>
      <trkpt lat="45.47078" lon="5.94449">
        <ele>1023.46</ele>
        <time>2013-02-09T12:12:50Z</time>
      </trkpt>
      <trkpt lat="45.47105" lon="5.94455">
        <ele>1019.13</ele>
        <time>2013-02-09T12:12:55Z</time>
      </trkpt>
      <trkpt lat="45.4711" lon="5.94452">
        <ele>1018.17</ele>
        <time>2013-02-09T12:12:56Z</time>
      </trkpt>
      <trkpt lat="45.47135" lon="5.94437">
        <ele>1014.33</ele>
        <time>2013-02-09T12:13:01Z</time>
      </trkpt>
      <trkpt lat="45.4714" lon="5.94434">
        <ele>1013.37</ele>
        <time>2013-02-09T12:13:02Z</time>
      </trkpt>
      <trkpt lat="45.47162" lon="5.9443">
        <ele>1010.96</ele>
        <time>2013-02-09T12:13:06Z</time>
      </trkpt>
      <trkpt lat="45.47169" lon="5.94431">
        <ele>1010</ele>
        <time>2013-02-09T12:13:07Z</time>
      </trkpt>
      <trkpt lat="45.47197" lon="5.94425">
        <ele>1005.68</ele>
        <time>2013-02-09T12:13:12Z</time>
      </trkpt>
      <trkpt lat="45.4721" lon="5.94414">
        <ele>1003.27</ele>
        <time>2013-02-09T12:13:15Z</time>
      </trkpt>
      <trkpt lat="45.47214" lon="5.94412">
        <ele>1002.31</ele>
        <time>2013-02-09T12:13:16Z</time>
      </trkpt>
      <trkpt lat="45.47218" lon="5.9443">
        <ele>999.43</ele>
        <time>2013-02-09T12:13:21Z</time>
      </trkpt>
      <trkpt lat="45.47211" lon="5.94441">
        <ele>997.99</ele>
        <time>2013-02-09T12:13:24Z</time>
      </trkpt>
      <trkpt lat="45.47202" lon="5.94454">
        <ele>996.54</ele>
        <time>2013-02-09T12:13:27Z</time>
      </trkpt>
      <trkpt lat="45.4718" lon="5.94472">
        <ele>993.18</ele>
        <time>2013-02-09T12:13:32Z</time>
      </trkpt>
      <trkpt lat="45.47171" lon="5.94481">
        <ele>992.7</ele>
        <time>2013-02-09T12:13:34Z</time>
      </trkpt>
      <trkpt lat="45.47158" lon="5.94499">
        <ele>990.3</ele>
        <time>2013-02-09T12:13:37Z</time>
      </trkpt>
      <trkpt lat="45.47133" lon="5.94523">
        <ele>986.45</ele>
        <time>2013-02-09T12:13:44Z</time>
      </trkpt>
      <trkpt lat="45.47128" lon="5.94528">
        <ele>985.01</ele>
        <time>2013-02-09T12:13:47Z</time>
      </trkpt>
      <trkpt lat="45.47114" lon="5.94543">
        <ele>983.57</ele>
        <time>2013-02-09T12:13:56Z</time>
      </trkpt>
      <trkpt lat="45.47097" lon="5.9455">
        <ele>981.64</ele>
        <time>2013-02-09T12:14:03Z</time>
      </trkpt>
      <trkpt lat="45.47072" lon="5.94573">
        <ele>978.28</ele>
        <time>2013-02-09T12:14:12Z</time>
      </trkpt>
      <trkpt lat="45.47062" lon="5.94598">
        <ele>976.36</ele>
        <time>2013-02-09T12:14:22Z</time>
      </trkpt>
      <trkpt lat="45.47042" lon="5.94604">
        <ele>974.91</ele>
        <time>2013-02-09T12:14:32Z</time>
      </trkpt>
      <trkpt lat="45.4702" lon="5.94613">
        <ele>972.51</ele>
        <time>2013-02-09T12:14:40Z</time>
      </trkpt>
      <trkpt lat="45.47011" lon="5.94633">
        <ele>971.07</ele>
        <time>2013-02-09T12:14:50Z</time>
      </trkpt>
      <trkpt lat="45.47003" lon="5.94648">
        <ele>969.63</ele>
        <time>2013-02-09T12:14:59Z</time>
      </trkpt>
      <trkpt lat="45.46988" lon="5.94678">
        <ele>967.7</ele>
        <time>2013-02-09T12:15:11Z</time>
      </trkpt>
      <trkpt lat="45.47005" lon="5.94662">
        <ele>964.82</ele>
        <time>2013-02-09T12:15:21Z</time>
      </trkpt>
      <trkpt lat="45.47024" lon="5.94642">
        <ele>961.94</ele>
        <time>2013-02-09T12:15:29Z</time>
      </trkpt>
      <trkpt lat="45.4704" lon="5.9465">
        <ele>959.53</ele>
        <time>2013-02-09T12:15:33Z</time>
      </trkpt>
      <trkpt lat="45.47057" lon="5.94666">
        <ele>958.09</ele>
        <time>2013-02-09T12:15:37Z</time>
      </trkpt>
      <trkpt lat="45.47073" lon="5.94676">
        <ele>955.69</ele>
        <time>2013-02-09T12:15:40Z</time>
      </trkpt>
      <trkpt lat="45.47094" lon="5.94681">
        <ele>952.8</ele>
        <time>2013-02-09T12:15:44Z</time>
      </trkpt>
      <trkpt lat="45.47123" lon="5.94672">
        <ele>948.48</ele>
        <time>2013-02-09T12:15:49Z</time>
      </trkpt>
      <trkpt lat="45.47139" lon="5.94659">
        <ele>946.07</ele>
        <time>2013-02-09T12:15:52Z</time>
      </trkpt>
      <trkpt lat="45.47144" lon="5.94654">
        <ele>945.11</ele>
        <time>2013-02-09T12:15:53Z</time>
      </trkpt>
      <trkpt lat="45.47167" lon="5.94648">
        <ele>940.79</ele>
        <time>2013-02-09T12:15:57Z</time>
      </trkpt>
      <trkpt lat="45.47172" lon="5.94651">
        <ele>939.83</ele>
        <time>2013-02-09T12:15:58Z</time>
      </trkpt>
      <trkpt lat="45.47182" lon="5.94658">
        <ele>938.38</ele>
        <time>2013-02-09T12:16:00Z</time>
      </trkpt>
      <trkpt lat="45.47215" lon="5.94671">
        <ele>934.54</ele>
        <time>2013-02-09T12:16:05Z</time>
      </trkpt>
      <trkpt lat="45.4723" lon="5.94681">
        <ele>932.14</ele>
        <time>2013-02-09T12:16:07Z</time>
      </trkpt>
      <trkpt lat="45.47262" lon="5.94701">
        <ele>928.29</ele>
        <time>2013-02-09T12:16:11Z</time>
      </trkpt>
      <trkpt lat="45.47283" lon="5.94715">
        <ele>923.96</ele>
        <time>2013-02-09T12:16:14Z</time>
      </trkpt>
      <trkpt lat="45.47302" lon="5.94723">
        <ele>919.64</ele>
        <time>2013-02-09T12:16:17Z</time>
      </trkpt>
      <trkpt lat="45.47308" lon="5.94724">
        <ele>918.68</ele>
        <time>2013-02-09T12:16:18Z</time>
      </trkpt>
      <trkpt lat="45.47323" lon="5.94722">
        <ele>916.75</ele>
        <time>2013-02-09T12:16:21Z</time>
      </trkpt>
      <trkpt lat="45.47336" lon="5.94712">
        <ele>913.39</ele>
        <time>2013-02-09T12:16:26Z</time>
      </trkpt>
      <trkpt lat="45.47352" lon="5.94669">
        <ele>910.03</ele>
        <time>2013-02-09T12:16:40Z</time>
      </trkpt>
      <trkpt lat="45.4736" lon="5.94647">
        <ele>908.58</ele>
        <time>2013-02-09T12:16:44Z</time>
      </trkpt>
      <trkpt lat="45.47368" lon="5.9459">
        <ele>904.26</ele>
        <time>2013-02-09T12:16:51Z</time>
      </trkpt>
      <trkpt lat="45.47372" lon="5.94559">
        <ele>900.89</ele>
        <time>2013-02-09T12:16:54Z</time>
      </trkpt>
      <trkpt lat="45.47377" lon="5.94538">
        <ele>897.05</ele>
        <time>2013-02-09T12:16:56Z</time>
      </trkpt>
      <trkpt lat="45.47381" lon="5.94517">
        <ele>895.12</ele>
        <time>2013-02-09T12:16:58Z</time>
      </trkpt>
      <trkpt lat="45.47386" lon="5.94495">
        <ele>891.28</ele>
        <time>2013-02-09T12:17:00Z</time>
      </trkpt>
      <trkpt lat="45.47392" lon="5.94465">
        <ele>887.91</ele>
        <time>2013-02-09T12:17:03Z</time>
      </trkpt>
      <trkpt lat="45.47397" lon="5.94439">
        <ele>886.95</ele>
        <time>2013-02-09T12:17:06Z</time>
      </trkpt>
      <trkpt lat="45.47411" lon="5.94399">
        <ele>885.99</ele>
        <time>2013-02-09T12:17:11Z</time>
      </trkpt>
      <trkpt lat="45.47416" lon="5.94355">
        <ele>882.15</ele>
        <time>2013-02-09T12:17:16Z</time>
      </trkpt>
      <trkpt lat="45.47419" lon="5.94336">
        <ele>881.19</ele>
        <time>2013-02-09T12:17:18Z</time>
      </trkpt>
      <trkpt lat="45.47425" lon="5.94294">
        <ele>877.34</ele>
        <time>2013-02-09T12:17:22Z</time>
      </trkpt>
      <trkpt lat="45.47427" lon="5.94284">
        <ele>876.38</ele>
        <time>2013-02-09T12:17:23Z</time>
      </trkpt>
      <trkpt lat="45.47437" lon="5.94258">
        <ele>873.5</ele>
        <time>2013-02-09T12:17:26Z</time>
      </trkpt>
      <trkpt lat="45.47447" lon="5.9424">
        <ele>872.05</ele>
        <time>2013-02-09T12:17:29Z</time>
      </trkpt>
      <trkpt lat="45.4746" lon="5.94221">
        <ele>871.09</ele>
        <time>2013-02-09T12:17:38Z</time>
      </trkpt>
      <trkpt lat="45.47467" lon="5.942">
        <ele>871.09</ele>
        <time>2013-02-09T12:17:50Z</time>
      </trkpt>
      <trkpt lat="45.47471" lon="5.94182">
        <ele>870.61</ele>
        <time>2013-02-09T12:17:59Z</time>
      </trkpt>
      <trkpt lat="45.47471" lon="5.94168">
        <ele>870.61</ele>
        <time>2013-02-09T12:18:05Z</time>
      </trkpt>
      <trkpt lat="45.47466" lon="5.94143">
        <ele>870.13</ele>
        <time>2013-02-09T12:18:14Z</time>
      </trkpt>
      <trkpt lat="45.47467" lon="5.94119">
        <ele>869.17</ele>
        <time>2013-02-09T12:18:23Z</time>
      </trkpt>
      <trkpt lat="45.47471" lon="5.94099">
        <ele>869.17</ele>
        <time>2013-02-09T12:18:31Z</time>
      </trkpt>
      <trkpt lat="45.47473" lon="5.94082">
        <ele>868.69</ele>
        <time>2013-02-09T12:18:39Z</time>
      </trkpt>
      <trkpt lat="45.47481" lon="5.94056">
        <ele>868.21</ele>
        <time>2013-02-09T12:18:49Z</time>
      </trkpt>
      <trkpt lat="45.47485" lon="5.94041">
        <ele>867.25</ele>
        <time>2013-02-09T12:19:00Z</time>
      </trkpt>
      <trkpt lat="45.47482" lon="5.9401">
        <ele>868.21</ele>
        <time>2013-02-09T12:19:21Z</time>
      </trkpt>
      <trkpt lat="45.47474" lon="5.93991">
        <ele>868.21</ele>
        <time>2013-02-09T12:19:29Z</time>
      </trkpt>
      <trkpt lat="45.47479" lon="5.93966">
        <ele>867.73</ele>
        <time>2013-02-09T12:19:42Z</time>
      </trkpt>
      <trkpt lat="45.47488" lon="5.93948">
        <ele>867.25</ele>
        <time>2013-02-09T12:19:50Z</time>
      </trkpt>
      <trkpt lat="45.47499" lon="5.93938">
        <ele>867.25</ele>
        <time>2013-02-09T12:19:57Z</time>
      </trkpt>
      <trkpt lat="45.47517" lon="5.93924">
        <ele>866.77</ele>
        <time>2013-02-09T12:20:07Z</time>
      </trkpt>
      <trkpt lat="45.4754" lon="5.93892">
        <ele>865.32</ele>
        <time>2013-02-09T12:20:23Z</time>
      </trkpt>
      <trkpt lat="45.47548" lon="5.93879">
        <ele>864.84</ele>
        <time>2013-02-09T12:20:31Z</time>
      </trkpt>
      <trkpt lat="45.47557" lon="5.93864">
        <ele>864.36</ele>
        <time>2013-02-09T12:20:41Z</time>
      </trkpt>
      <trkpt lat="45.47566" lon="5.93851">
        <ele>864.36</ele>
        <time>2013-02-09T12:20:52Z</time>
      </trkpt>
      <trkpt lat="45.47574" lon="5.93839">
        <ele>864.36</ele>
        <time>2013-02-09T12:21:00Z</time>
      </trkpt>
      <trkpt lat="45.47586" lon="5.93818">
        <ele>863.88</ele>
        <time>2013-02-09T12:21:12Z</time>
      </trkpt>
      <trkpt lat="45.47598" lon="5.93807">
        <ele>863.88</ele>
        <time>2013-02-09T12:21:21Z</time>
      </trkpt>
      <trkpt lat="45.47623" lon="5.9379">
        <ele>862.92</ele>
        <time>2013-02-09T12:21:35Z</time>
      </trkpt>
      <trkpt lat="45.47647" lon="5.93748">
        <ele>860.04</ele>
        <time>2013-02-09T12:21:49Z</time>
      </trkpt>
      <trkpt lat="45.47661" lon="5.9373">
        <ele>857.63</ele>
        <time>2013-02-09T12:21:56Z</time>
      </trkpt>
      <trkpt lat="45.47681" lon="5.93717">
        <ele>856.67</ele>
        <time>2013-02-09T12:22:06Z</time>
      </trkpt>
      <trkpt lat="45.47701" lon="5.93701">
        <ele>855.23</ele>
        <time>2013-02-09T12:22:16Z</time>
      </trkpt>
      <trkpt lat="45.4773" lon="5.93682">
        <ele>853.31</ele>
        <time>2013-02-09T12:22:28Z</time>
      </trkpt>
      <trkpt lat="45.47739" lon="5.93675">
        <ele>852.83</ele>
        <time>2013-02-09T12:22:34Z</time>
      </trkpt>
      <trkpt lat="45.47754" lon="5.93692">
        <ele>851.38</ele>
        <time>2013-02-09T12:22:42Z</time>
      </trkpt>
      <trkpt lat="45.47745" lon="5.93733">
        <ele>848.98</ele>
        <time>2013-02-09T12:22:48Z</time>
      </trkpt>
      <trkpt lat="45.47742" lon="5.9374">
        <ele>848.5</ele>
        <time>2013-02-09T12:22:49Z</time>
      </trkpt>
      <trkpt lat="45.47726" lon="5.93774">
        <ele>846.1</ele>
        <time>2013-02-09T12:22:54Z</time>
      </trkpt>
      <trkpt lat="45.47713" lon="5.93797">
        <ele>843.21</ele>
        <time>2013-02-09T12:22:58Z</time>
      </trkpt>
      <trkpt lat="45.47711" lon="5.93822">
        <ele>840.81</ele>
        <time>2013-02-09T12:23:03Z</time>
      </trkpt>
      <trkpt lat="45.47725" lon="5.93819">
        <ele>839.37</ele>
        <time>2013-02-09T12:23:07Z</time>
      </trkpt>
      <trkpt lat="45.47745" lon="5.93825">
        <ele>837.45</ele>
        <time>2013-02-09T12:23:11Z</time>
      </trkpt>
      <trkpt lat="45.4776" lon="5.93831">
        <ele>836</ele>
        <time>2013-02-09T12:23:14Z</time>
      </trkpt>
      <trkpt lat="45.47777" lon="5.93825">
        <ele>832.16</ele>
        <time>2013-02-09T12:23:20Z</time>
      </trkpt>
      <trkpt lat="45.47777" lon="5.93827">
        <ele>831.68</ele>
        <time>2013-02-09T12:24:16Z</time>
      </trkpt>
      <trkpt lat="45.47778" lon="5.93825">
        <ele>833.6</ele>
        <time>2013-02-09T12:25:50Z</time>
      </trkpt>
      <trkpt lat="45.47777" lon="5.93826">
        <ele>833.6</ele>
        <time>2013-02-09T12:26:21Z</time>
      </trkpt>
      <trkpt lat="45.47773" lon="5.93825">
        <ele>834.08</ele>
        <time>2013-02-09T12:27:48Z</time>
      </trkpt>
      <trkpt lat="45.47771" lon="5.93827">
        <ele>834.08</ele>
        <time>2013-02-09T12:28:07Z</time>
      </trkpt>
      <trkpt lat="45.47775" lon="5.93827">
        <ele>835.04</ele>
        <time>2013-02-09T12:28:24Z</time>
      </trkpt>
      <trkpt lat="45.47776" lon="5.93828">
        <ele>835.04</ele>
        <time>2013-02-09T12:28:43Z</time>
      </trkpt>
      <trkpt lat="45.47775" lon="5.93828">
        <ele>835.52</ele>
        <time>2013-02-09T12:29:00Z</time>
      </trkpt>
      <trkpt lat="45.47777" lon="5.9383">
        <ele>835.52</ele>
        <time>2013-02-09T12:29:14Z</time>
      </trkpt>
      <trkpt lat="45.4777" lon="5.93825">
        <ele>835.04</ele>
        <time>2013-02-09T12:29:33Z</time>
      </trkpt>
      <trkpt lat="45.47774" lon="5.93824">
        <ele>836</ele>
        <time>2013-02-09T12:30:01Z</time>
      </trkpt>
      <trkpt lat="45.47771" lon="5.93819">
        <ele>836</ele>
        <time>2013-02-09T12:30:16Z</time>
      </trkpt>
      <trkpt lat="45.47775" lon="5.93828">
        <ele>836</ele>
        <time>2013-02-09T12:30:29Z</time>
      </trkpt>
      <trkpt lat="45.47779" lon="5.93827">
        <ele>836.48</ele>
        <time>2013-02-09T12:30:34Z</time>
      </trkpt>
      <trkpt lat="45.47777" lon="5.93824">
        <ele>836.48</ele>
        <time>2013-02-09T12:30:37Z</time>
      </trkpt>
      <trkpt lat="45.47778" lon="5.93823">
        <ele>836.96</ele>
        <time>2013-02-09T12:30:49Z</time>
      </trkpt>
      <trkpt lat="45.47782" lon="5.93826">
        <ele>837.45</ele>
        <time>2013-02-09T12:31:23Z</time>
      </trkpt>
      <trkpt lat="45.47782" lon="5.93828">
        <ele>837.45</ele>
        <time>2013-02-09T12:31:24Z</time>
      </trkpt>
      <trkpt lat="45.47769" lon="5.9384">
        <ele>835.52</ele>
        <time>2013-02-09T12:31:39Z</time>
      </trkpt>
      <trkpt lat="45.47771" lon="5.9383">
        <ele>836</ele>
        <time>2013-02-09T12:31:52Z</time>
      </trkpt>
      <trkpt lat="45.47773" lon="5.93835">
        <ele>836</ele>
        <time>2013-02-09T12:32:03Z</time>
      </trkpt>
      <trkpt lat="45.47773" lon="5.9384">
        <ele>836</ele>
        <time>2013-02-09T12:32:29Z</time>
      </trkpt>
      <trkpt lat="45.47771" lon="5.93838">
        <ele>836</ele>
        <time>2013-02-09T12:32:47Z</time>
      </trkpt>
      <trkpt lat="45.47769" lon="5.93839">
        <ele>836</ele>
        <time>2013-02-09T12:32:54Z</time>
      </trkpt>
      <trkpt lat="45.47769" lon="5.93838">
        <ele>836</ele>
        <time>2013-02-09T12:33:09Z</time>
      </trkpt>
      <trkpt lat="45.47769" lon="5.93838">
        <ele>836</ele>
        <time>2013-02-09T12:33:12Z</time>
      </trkpt>
    </trkseg>
  </trk>
</gpx>